NOAA Web Site Link Tides and Currents Home Page Transparent placeholder image

PORTS® Data Listing: 8720219 Dames Point, FL

CO-OPS RAW PORTS DATA

************************      PRELIMINARY DATA      ************************** 

     THIS RAW DATA HAS NOT BEEN SUBJECT TO THE NATIONAL OCEAN SERVICE'S        
     QUALITY CONTROL OR QUALITY ASSURANCE PROCEDURES AND DOES NOT MEET         
     THE CRITERIA AND STANDARDS OF OFFICIAL NATIONAL OCEAN SERVICE             
     DATA.  IT IS RELEASED FOR LIMITED PUBLIC USE AS PRELIMINARY DATA TO       
     BE USED ONLY WITH APPROPRIATE CAUTION.                                    

************************      PRELIMINARY DATA      ************************** 


       CD   -   Calendar date
       T    -   Time
       TZ   -   Timezone
       PW   -   Predicted water level (feet above MLLW)
       OW   -   Observed water level (feet above MLLW)
       WS   -   Wind speed (knots)
       WD   -   Wind direction (degrees true)
       WG   -   Wind gust (knots)
       AT   -   Air temperature (degrees farenheit)
       WT   -   Water temperature (degrees farenheit)
       AP   -   Air pressure (millibars)
       SA   -   Salinty (PSU - Practical Salinity Units)
       SG   -   Specific gravity
       RH   -   Relative humidity
       AG   -   Air gap (feet)
       VI   -   Visibility (nautical miles)

       ** NOTE **
       A variable that has its data fields filled with "9"s, indicates that
       data was not collected for that sample period.
       **********


STATION NAME: Dames Point (8720219)
****************************************************************************************************
    CD       T    TZ    PW     OW    WS   WD   WG    AT    WT    AP    SA    SG     RH    AG   VI
****************************************************************************************************
2019/06/24 05:36 EDT    2.09   2.59 -999 -999 -999 -99.9  83.8 -999.9 25.8  1.016 -99.9 -99.99 -9.99
2019/06/24 05:42 EDT    2.01   2.51 -999 -999 -999 -99.9  83.8 -999.9 25.5  1.016 -99.9 -99.99 -9.99
2019/06/24 05:48 EDT    1.92   2.42 -999 -999 -999 -99.9  83.8 -999.9 25.3  1.016 -99.9 -99.99 -9.99
2019/06/24 05:54 EDT    1.84   2.32 -999 -999 -999 -99.9  83.8 -999.9 25.3  1.016 -99.9 -99.99 -9.99
2019/06/24 06:00 EDT    1.75   2.23 -999 -999 -999 -99.9  83.8 -999.9 25.3  1.016 -99.9 -99.99 -9.99
2019/06/24 06:06 EDT    1.67   2.15 -999 -999 -999 -99.9  83.8 -999.9 24.8  1.015 -99.9 -99.99 -9.99
2019/06/24 06:12 EDT    1.58   2.05 -999 -999 -999 -99.9  83.8 -999.9 25.3  1.016 -99.9 -99.99 -9.99
2019/06/24 06:18 EDT    1.50   1.95 -999 -999 -999 -99.9  83.8 -999.9 25.2  1.016 -99.9 -99.99 -9.99
2019/06/24 06:24 EDT    1.42   1.85 -999 -999 -999 -99.9  83.8 -999.9 25.1  1.016 -99.9 -99.99 -9.99
2019/06/24 06:30 EDT    1.34   1.76 -999 -999 -999 -99.9  83.8 -999.9 24.7  1.015 -99.9 -99.99 -9.99
2019/06/24 06:36 EDT    1.26   1.69 -999 -999 -999 -99.9  83.8 -999.9 24.2  1.015 -99.9 -99.99 -9.99
2019/06/24 06:42 EDT    1.19   1.61 -999 -999 -999 -99.9  84.0 -999.9 23.5  1.014 -99.9 -99.99 -9.99
2019/06/24 06:48 EDT    1.12   1.55 -999 -999 -999 -99.9  84.0 -999.9 23.0  1.014 -99.9 -99.99 -9.99
2019/06/24 06:54 EDT    1.05   1.43 -999 -999 -999 -99.9  84.0 -999.9 23.0  1.014 -99.9 -99.99 -9.99
2019/06/24 07:00 EDT    0.99   1.31 -999 -999 -999 -99.9  83.8 -999.9 23.4  1.014 -99.9 -99.99 -9.99
2019/06/24 07:06 EDT    0.93   1.21 -999 -999 -999 -99.9  83.8 -999.9 24.5  1.015 -99.9 -99.99 -9.99
2019/06/24 07:12 EDT    0.87   1.13 -999 -999 -999 -99.9  84.0 -999.9 24.1  1.015 -99.9 -99.99 -9.99
2019/06/24 07:18 EDT    0.81   1.06 -999 -999 -999 -99.9  83.8 -999.9 24.3  1.015 -99.9 -99.99 -9.99
2019/06/24 07:24 EDT    0.76   1.01 -999 -999 -999 -99.9  83.7 -999.9 24.9  1.016 -99.9 -99.99 -9.99
2019/06/24 07:30 EDT    0.72   0.95 -999 -999 -999 -99.9  83.7 -999.9 25.3  1.016 -99.9 -99.99 -9.99
2019/06/24 07:36 EDT    0.67   0.95 -999 -999 -999 -99.9  83.7 -999.9 25.2  1.016 -99.9 -99.99 -9.99
2019/06/24 07:42 EDT    0.63   0.85 -999 -999 -999 -99.9  83.7 -999.9 23.7  1.015 -99.9 -99.99 -9.99
2019/06/24 07:48 EDT    0.59   0.82 -999 -999 -999 -99.9  83.7 -999.9 23.7  1.015 -99.9 -99.99 -9.99
2019/06/24 07:54 EDT    0.56   0.76 -999 -999 -999 -99.9  83.7 -999.9 22.8  1.014 -99.9 -99.99 -9.99
2019/06/24 08:00 EDT    0.53   0.72 -999 -999 -999 -99.9  83.5 -999.9 24.8  1.016 -99.9 -99.99 -9.99
2019/06/24 08:06 EDT    0.50   0.68 -999 -999 -999 -99.9  83.7 -999.9 22.3  1.014 -99.9 -99.99 -9.99
2019/06/24 08:12 EDT    0.47   0.65 -999 -999 -999 -99.9  83.8 -999.9 21.9  1.013 -99.9 -99.99 -9.99
2019/06/24 08:18 EDT    0.45   0.60 -999 -999 -999 -99.9  83.8 -999.9 21.7  1.013 -99.9 -99.99 -9.99
2019/06/24 08:24 EDT    0.43   0.59 -999 -999 -999 -99.9  83.8 -999.9 21.4  1.013 -99.9 -99.99 -9.99
2019/06/24 08:30 EDT    0.41   0.55 -999 -999 -999 -99.9  83.8 -999.9 21.1  1.013 -99.9 -99.99 -9.99
2019/06/24 08:36 EDT    0.39   0.54 -999 -999 -999 -99.9  84.0 -999.9 21.2  1.013 -99.9 -99.99 -9.99
2019/06/24 08:42 EDT    0.38   0.53 -999 -999 -999 -99.9  83.8 -999.9 21.4  1.013 -99.9 -99.99 -9.99
2019/06/24 08:48 EDT    0.36   0.52 -999 -999 -999 -99.9  84.0 -999.9 20.9  1.012 -99.9 -99.99 -9.99
2019/06/24 08:54 EDT    0.35   0.50 -999 -999 -999 -99.9  84.0 -999.9 21.3  1.013 -99.9 -99.99 -9.99
2019/06/24 09:00 EDT    0.35   0.46 -999 -999 -999 -99.9  84.0 -999.9 21.4  1.013 -99.9 -99.99 -9.99
2019/06/24 09:06 EDT    0.34   0.44 -999 -999 -999 -99.9  84.0 -999.9 22.1  1.013 -99.9 -99.99 -9.99
2019/06/24 09:12 EDT    0.34   0.45 -999 -999 -999 -99.9  84.0 -999.9 20.6  1.012 -99.9 -99.99 -9.99
2019/06/24 09:18 EDT    0.34   0.46 -999 -999 -999 -99.9  84.0 -999.9 21.0  1.013 -99.9 -99.99 -9.99
2019/06/24 09:24 EDT    0.34   0.48 -999 -999 -999 -99.9  84.0 -999.9 20.6  1.012 -99.9 -99.99 -9.99
2019/06/24 09:30 EDT    0.34   0.49 -999 -999 -999 -99.9  84.2 -999.9 20.1  1.012 -99.9 -99.99 -9.99
2019/06/24 09:36 EDT    0.35   0.50 -999 -999 -999 -99.9  84.2 -999.9 20.0  1.012 -99.9 -99.99 -9.99
2019/06/24 09:42 EDT    0.36   0.52 -999 -999 -999 -99.9  84.2 -999.9 20.1  1.012 -99.9 -99.99 -9.99
2019/06/24 09:48 EDT    0.38   0.54 -999 -999 -999 -99.9  84.2 -999.9 19.6  1.011 -99.9 -99.99 -9.99
2019/06/24 09:54 EDT    0.39   0.57 -999 -999 -999 -99.9  84.2 -999.9 19.8  1.012 -99.9 -99.99 -9.99
2019/06/24 10:00 EDT    0.42   0.60 -999 -999 -999 -99.9  84.2 -999.9 19.7  1.012 -99.9 -99.99 -9.99
2019/06/24 10:06 EDT    0.44   0.64 -999 -999 -999 -99.9  84.2 -999.9 20.3  1.012 -99.9 -99.99 -9.99
2019/06/24 10:12 EDT    0.47   0.66 -999 -999 -999 -99.9  84.2 -999.9 20.3  1.012 -99.9 -99.99 -9.99
2019/06/24 10:18 EDT    0.50   0.71 -999 -999 -999 -99.9  84.2 -999.9 20.7  1.012 -99.9 -99.99 -9.99
2019/06/24 10:24 EDT    0.54   0.75 -999 -999 -999 -99.9  84.2 -999.9 20.9  1.012 -99.9 -99.99 -9.99
2019/06/24 10:30 EDT    0.58   0.80 -999 -999 -999 -99.9  84.4 -999.9 20.5  1.012 -99.9 -99.99 -9.99
2019/06/24 10:36 EDT    0.62   0.90 -999 -999 -999 -99.9  84.2 -999.9 20.6  1.012 -99.9 -99.99 -9.99
2019/06/24 10:42 EDT    0.67   0.96 -999 -999 -999 -99.9  84.4 -999.9 20.5  1.012 -99.9 -99.99 -9.99
2019/06/24 10:48 EDT    0.72   1.01 -999 -999 -999 -99.9  84.2 -999.9 20.9  1.012 -99.9 -99.99 -9.99
2019/06/24 10:54 EDT    0.78   1.07 -999 -999 -999 -99.9  84.4 -999.9 20.4  1.012 -99.9 -99.99 -9.99
2019/06/24 11:00 EDT    0.84   1.16 -999 -999 -999 -99.9  84.6 -999.9 19.2  1.011 -99.9 -99.99 -9.99
2019/06/24 11:06 EDT    0.90   1.25 -999 -999 -999 -99.9  84.6 -999.9 18.7  1.011 -99.9 -99.99 -9.99
2019/06/24 11:12 EDT    0.97   1.34 -999 -999 -999 -99.9  84.7 -999.9 18.3  1.010 -99.9 -99.99 -9.99
2019/06/24 11:18 EDT    1.04   1.38 -999 -999 -999 -99.9  84.9 -999.9 18.0  1.010 -99.9 -99.99 -9.99
2019/06/24 11:24 EDT    1.12   1.47 -999 -999 -999 -99.9  84.7 -999.9 18.3  1.010 -99.9 -99.99 -9.99
2019/06/24 11:30 EDT    1.19   1.56 -999 -999 -999 -99.9  84.7 -999.9 18.6  1.011 -99.9 -99.99 -9.99
2019/06/24 11:36 EDT    1.27   1.69 -999 -999 -999 -99.9  84.7 -999.9 18.8  1.011 -99.9 -99.99 -9.99
2019/06/24 11:42 EDT    1.35   1.79 -999 -999 -999 -99.9  84.9 -999.9 18.8  1.011 -99.9 -99.99 -9.99
2019/06/24 11:48 EDT    1.43   1.92 -999 -999 -999 -99.9  84.9 -999.9 18.5  1.011 -99.9 -99.99 -9.99
2019/06/24 11:54 EDT    1.52   2.00 -999 -999 -999 -99.9  84.7 -999.9 19.3  1.011 -99.9 -99.99 -9.99
2019/06/24 12:00 EDT    1.60   2.07 -999 -999 -999 -99.9  84.9 -999.9 18.9  1.011 -99.9 -99.99 -9.99
2019/06/24 12:06 EDT    1.69   2.13 -999 -999 -999 -99.9  84.7 -999.9 19.3  1.011 -99.9 -99.99 -9.99
2019/06/24 12:12 EDT    1.77   2.21 -999 -999 -999 -99.9  84.7 -999.9 19.0  1.011 -99.9 -99.99 -9.99
2019/06/24 12:18 EDT    1.86   2.28 -999 -999 -999 -99.9  84.6 -999.9 20.1  1.012 -99.9 -99.99 -9.99
2019/06/24 12:24 EDT    1.94   2.38 -999 -999 -999 -99.9  84.4 -999.9 21.2  1.013 -99.9 -99.99 -9.99
2019/06/24 12:30 EDT    2.03   2.50 -999 -999 -999 -99.9  84.2 -999.9 21.6  1.013 -99.9 -99.99 -9.99
2019/06/24 12:36 EDT    2.11   2.62 -999 -999 -999 -99.9  84.0 -999.9 21.6  1.013 -99.9 -99.99 -9.99
2019/06/24 12:42 EDT    2.19   2.67 -999 -999 -999 -99.9  84.7 -999.9 20.1  1.012 -99.9 -99.99 -9.99
2019/06/24 12:48 EDT    2.27   2.77 -999 -999 -999 -99.9  85.1 -999.9 19.4  1.011 -99.9 -99.99 -9.99
2019/06/24 12:54 EDT    2.34   2.82 -999 -999 -999 -99.9  85.5 -999.9 19.1  1.011 -99.9 -99.99 -9.99
2019/06/24 13:00 EDT    2.41   2.93 -999 -999 -999 -99.9  85.8 -999.9 19.5  1.011 -99.9 -99.99 -9.99
2019/06/24 13:06 EDT    2.48   2.99 -999 -999 -999 -99.9  85.6 -999.9 19.5  1.011 -99.9 -99.99 -9.99
2019/06/24 13:12 EDT    2.55   3.07 -999 -999 -999 -99.9  85.5 -999.9 19.4  1.011 -99.9 -99.99 -9.99
2019/06/24 13:18 EDT    2.61   3.14 -999 -999 -999 -99.9  85.5 -999.9 19.2  1.011 -99.9 -99.99 -9.99
2019/06/24 13:24 EDT    2.67   3.12 -999 -999 -999 -99.9  85.3 -999.9 19.2  1.011 -99.9 -99.99 -9.99
2019/06/24 13:30 EDT    2.72   3.23 -999 -999 -999 -99.9  85.5 -999.9 19.5  1.011 -99.9 -99.99 -9.99
2019/06/24 13:36 EDT    2.77   3.29 -999 -999 -999 -99.9  85.1 -999.9 19.9  1.012 -99.9 -99.99 -9.99
2019/06/24 13:42 EDT    2.82   3.34 -999 -999 -999 -99.9  85.1 -999.9 20.1  1.012 -99.9 -99.99 -9.99
2019/06/24 13:48 EDT    2.86   3.40 -999 -999 -999 -99.9  84.9 -999.9 20.3  1.012 -99.9 -99.99 -9.99
2019/06/24 13:54 EDT    2.90   3.46 -999 -999 -999 -99.9  85.3 -999.9 19.3  1.011 -99.9 -99.99 -9.99
2019/06/24 14:00 EDT    2.93   3.47 -999 -999 -999 -99.9  85.1 -999.9 20.1  1.012 -99.9 -99.99 -9.99
2019/06/24 14:06 EDT    2.96   3.48 -999 -999 -999 -99.9  85.1 -999.9 20.1  1.012 -99.9 -99.99 -9.99
2019/06/24 14:12 EDT    2.99   3.50 -999 -999 -999 -99.9  85.1 -999.9 20.4  1.012 -99.9 -99.99 -9.99
2019/06/24 14:18 EDT    3.01   3.53 -999 -999 -999 -99.9  85.1 -999.9 20.5  1.012 -99.9 -99.99 -9.99
2019/06/24 14:24 EDT    3.03   3.53 -999 -999 -999 -99.9  85.1 -999.9 21.0  1.012 -99.9 -99.99 -9.99
2019/06/24 14:30 EDT    3.05   3.54 -999 -999 -999 -99.9  85.1 -999.9 20.8  1.012 -99.9 -99.99 -9.99
2019/06/24 14:36 EDT    3.06   3.56 -999 -999 -999 -99.9  84.7 -999.9 22.1  1.013 -99.9 -99.99 -9.99
2019/06/24 14:42 EDT    3.07   3.60 -999 -999 -999 -99.9  84.9 -999.9 21.7  1.013 -99.9 -99.99 -9.99
2019/06/24 14:48 EDT    3.08   3.62 -999 -999 -999 -99.9  84.9 -999.9 21.8  1.013 -99.9 -99.99 -9.99
2019/06/24 14:54 EDT    3.08   3.63 -999 -999 -999 -99.9  85.1 -999.9 21.6  1.013 -99.9 -99.99 -9.99
2019/06/24 15:00 EDT    3.08   3.62 -999 -999 -999 -99.9  85.1 -999.9 21.6  1.013 -99.9 -99.99 -9.99
2019/06/24 15:06 EDT    3.09   3.60 -999 -999 -999 -99.9  85.1 -999.9 21.7  1.013 -99.9 -99.99 -9.99
2019/06/24 15:12 EDT    3.09   3.60 -999 -999 -999 -99.9  85.1 -999.9 21.8  1.013 -99.9 -99.99 -9.99
2019/06/24 15:18 EDT    3.08   3.61 -999 -999 -999 -99.9  85.3 -999.9 21.2  1.012 -99.9 -99.99 -9.99
2019/06/24 15:24 EDT    3.08   3.61 -999 -999 -999 -99.9  85.1 -999.9 21.8  1.013 -99.9 -99.99 -9.99
2019/06/24 15:30 EDT    3.07   3.60 -999 -999 -999 -99.9  85.1 -999.9 21.7  1.013 -99.9 -99.99 -9.99
2019/06/24 15:36 EDT    3.06   3.58 -999 -999 -999 -99.9  85.3 -999.9 21.7  1.013 -99.9 -99.99 -9.99
2019/06/24 15:42 EDT    3.05   3.57 -999 -999 -999 -99.9  85.1 -999.9 22.2  1.013 -99.9 -99.99 -9.99
2019/06/24 15:48 EDT    3.04   3.57 -999 -999 -999 -99.9  84.9 -999.9 22.5  1.013 -99.9 -99.99 -9.99
2019/06/24 15:54 EDT    3.03   3.54 -999 -999 -999 -99.9  85.1 -999.9 22.4  1.013 -99.9 -99.99 -9.99
2019/06/24 16:00 EDT    3.01   3.52 -999 -999 -999 -99.9  85.3 -999.9 22.4  1.013 -99.9 -99.99 -9.99
2019/06/24 16:06 EDT    2.99   3.49 -999 -999 -999 -99.9  85.3 -999.9 22.7  1.014 -99.9 -99.99 -9.99
2019/06/24 16:12 EDT    2.97   3.47 -999 -999 -999 -99.9  85.6 -999.9 22.3  1.013 -99.9 -99.99 -9.99
2019/06/24 16:18 EDT    2.95   3.47 -999 -999 -999 -99.9  85.3 -999.9 23.2  1.014 -99.9 -99.99 -9.99
2019/06/24 16:24 EDT    2.92   3.45 -999 -999 -999 -99.9  85.3 -999.9 23.2  1.014 -99.9 -99.99 -9.99
2019/06/24 16:30 EDT    2.90   3.40 -999 -999 -999 -99.9  85.1 -999.9 23.7  1.014 -99.9 -99.99 -9.99
2019/06/24 16:36 EDT    2.86   3.36 -999 -999 -999 -99.9  85.3 -999.9 23.2  1.014 -99.9 -99.99 -9.99
2019/06/24 16:42 EDT    2.83   3.34 -999 -999 -999 -99.9  84.9 -999.9 24.3  1.015 -99.9 -99.99 -9.99
2019/06/24 16:48 EDT    2.79   3.30 -999 -999 -999 -99.9  84.7 -999.9 25.0  1.015 -99.9 -99.99 -9.99
2019/06/24 16:54 EDT    2.74   3.24 -999 -999 -999 -99.9  84.9 -999.9 24.6  1.015 -99.9 -99.99 -9.99
2019/06/24 17:00 EDT    2.70   3.19 -999 -999 -999 -99.9  84.9 -999.9 24.7  1.015 -99.9 -99.99 -9.99
2019/06/24 17:06 EDT    2.65   3.14 -999 -999 -999 -99.9  84.6 -999.9 25.0  1.015 -99.9 -99.99 -9.99
2019/06/24 17:12 EDT    2.59   3.07 -999 -999 -999 -99.9  85.1 -999.9 24.7  1.015 -99.9 -99.99 -9.99
2019/06/24 17:18 EDT    2.54   3.03 -999 -999 -999 -99.9  84.6 -999.9 25.7  1.016 -99.9 -99.99 -9.99
2019/06/24 17:24 EDT    2.48   2.96 -999 -999 -999 -99.9  84.6 -999.9 25.3  1.016 -99.9 -99.99 -9.99
2019/06/24 17:30 EDT    2.41   2.86 -999 -999 -999 -99.9  85.3 -999.9 24.3  1.015 -99.9 -99.99 -9.99
2019/06/24 17:36 EDT    2.34   2.80 -999 -999 -999 -99.9  85.1 -999.9 24.6  1.015 -99.9 -99.99 -9.99
2019/06/24 17:42 EDT    2.28   2.72 -999 -999 -999 -99.9  84.9 -999.9 25.0  1.015 -99.9 -99.99 -9.99
2019/06/24 17:48 EDT    2.20   2.62 -999 -999 -999 -99.9  84.9 -999.9 25.1  1.015 -99.9 -99.99 -9.99
2019/06/24 17:54 EDT    2.13   2.54 -999 -999 -999 -99.9  84.9 -999.9 25.4  1.016 -99.9 -99.99 -9.99
2019/06/24 18:00 EDT    2.06   2.46 -999 -999 -999 -99.9  85.3 -999.9 25.1  1.015 -99.9 -99.99 -9.99
2019/06/24 18:06 EDT    1.98   2.40 -999 -999 -999 -99.9  85.6 -999.9 24.5  1.015 -99.9 -99.99 -9.99
2019/06/24 18:12 EDT    1.90   2.28 -999 -999 -999 -99.9  86.0 -999.9 24.1  1.015 -99.9 -99.99 -9.99
2019/06/24 18:18 EDT    1.83   2.17 -999 -999 -999 -99.9  86.0 -999.9 24.1  1.015 -99.9 -99.99 -9.99
2019/06/24 18:24 EDT    1.75   2.12 -999 -999 -999 -99.9  84.6 -999.9 26.2  1.016 -99.9 -99.99 -9.99
2019/06/24 18:30 EDT    1.67   2.04 -999 -999 -999 -99.9  86.0 -999.9 23.8  1.014 -99.9 -99.99 -9.99
2019/06/24 18:36 EDT    1.60   1.94 -999 -999 -999 -99.9  85.6 -999.9 24.8  1.015 -99.9 -99.99 -9.99
2019/06/24 18:42 EDT    1.53   1.84 -999 -999 -999 -99.9  85.6 -999.9 23.9  1.014 -99.9 -99.99 -9.99
2019/06/24 18:48 EDT    1.46   1.79 -999 -999 -999 -99.9  85.5 -999.9 23.5  1.014 -99.9 -99.99 -9.99
2019/06/24 18:54 EDT    1.39   1.71 -999 -999 -999 -99.9  84.9 -999.9 25.2  1.016 -99.9 -99.99 -9.99
2019/06/24 19:00 EDT    1.32   1.65 -999 -999 -999 -99.9  85.3 -999.9 23.8  1.014 -99.9 -99.99 -9.99
2019/06/24 19:06 EDT    1.26   1.59 -999 -999 -999 -99.9  84.9 -999.9 25.0  1.015 -99.9 -99.99 -9.99
2019/06/24 19:12 EDT    1.20   1.51 -999 -999 -999 -99.9  84.9 -999.9 25.0  1.015 -99.9 -99.99 -9.99
2019/06/24 19:18 EDT    1.14   1.45 -999 -999 -999 -99.9  84.7 -999.9 25.2  1.016 -99.9 -99.99 -9.99
2019/06/24 19:24 EDT    1.09   1.39 -999 -999 -999 -99.9  84.6 -999.9 25.5  1.016 -99.9 -99.99 -9.99
2019/06/24 19:30 EDT    1.04   1.36 -999 -999 -999 -99.9  84.6 -999.9 25.4  1.016 -99.9 -99.99 -9.99
2019/06/24 19:36 EDT    0.99   1.30 -999 -999 -999 -99.9  84.9 -999.9 24.8  1.015 -99.9 -99.99 -9.99
2019/06/24 19:42 EDT    0.95   1.26 -999 -999 -999 -99.9  84.7 -999.9 25.4  1.016 -99.9 -99.99 -9.99
2019/06/24 19:48 EDT    0.91   1.21 -999 -999 -999 -99.9  84.9 -999.9 24.8  1.015 -99.9 -99.99 -9.99
2019/06/24 19:54 EDT    0.88   1.16 -999 -999 -999 -99.9  84.7 -999.9 25.2  1.016 -99.9 -99.99 -9.99
2019/06/24 20:00 EDT    0.84   1.12 -999 -999 -999 -99.9  84.9 -999.9 24.7  1.015 -99.9 -99.99 -9.99
2019/06/24 20:06 EDT    0.82   1.10 -999 -999 -999 -99.9  84.7 -999.9 24.7  1.015 -99.9 -99.99 -9.99
2019/06/24 20:12 EDT    0.79   1.06 -999 -999 -999 -99.9  84.9 -999.9 24.1  1.015 -99.9 -99.99 -9.99
2019/06/24 20:18 EDT    0.77   1.02 -999 -999 -999 -99.9  84.9 -999.9 24.4  1.015 -99.9 -99.99 -9.99
2019/06/24 20:24 EDT    0.75   0.99 -999 -999 -999 -99.9  84.9 -999.9 24.0  1.015 -99.9 -99.99 -9.99
2019/06/24 20:30 EDT    0.73   0.96 -999 -999 -999 -99.9  85.1 -999.9 23.5  1.014 -99.9 -99.99 -9.99
2019/06/24 20:36 EDT    0.71   0.95 -999 -999 -999 -99.9  85.5 -999.9 22.7  1.014 -99.9 -99.99 -9.99
2019/06/24 20:42 EDT    0.70   0.94 -999 -999 -999 -99.9  85.5 -999.9 22.4  1.013 -99.9 -99.99 -9.99
2019/06/24 20:48 EDT    0.69   0.92 -999 -999 -999 -99.9  85.5 -999.9 22.2  1.013 -99.9 -99.99 -9.99
2019/06/24 20:54 EDT    0.68   0.91 -999 -999 -999 -99.9  85.6 -999.9 22.2  1.013 -99.9 -99.99 -9.99
2019/06/24 21:00 EDT    0.68   0.89 -999 -999 -999 -99.9  85.8 -999.9 21.8  1.013 -99.9 -99.99 -9.99
2019/06/24 21:06 EDT    0.67   0.89 -999 -999 -999 -99.9  85.6 -999.9 22.1  1.013 -99.9 -99.99 -9.99
2019/06/24 21:12 EDT    0.67   0.89 -999 -999 -999 -99.9  85.6 -999.9 22.1  1.013 -99.9 -99.99 -9.99
2019/06/24 21:18 EDT    0.67   0.89 -999 -999 -999 -99.9  85.6 -999.9 22.4  1.013 -99.9 -99.99 -9.99
2019/06/24 21:24 EDT    0.67   0.89 -999 -999 -999 -99.9  85.6 -999.9 22.4  1.013 -99.9 -99.99 -9.99
2019/06/24 21:30 EDT    0.67   0.90 -999 -999 -999 -99.9  85.5 -999.9 22.7  1.014 -99.9 -99.99 -9.99
2019/06/24 21:36 EDT    0.68   0.90 -999 -999 -999 -99.9  85.8 -999.9 21.4  1.012 -99.9 -99.99 -9.99
2019/06/24 21:42 EDT    0.68   0.92 -999 -999 -999 -99.9  86.2 -999.9 20.5  1.012 -99.9 -99.99 -9.99
2019/06/24 21:48 EDT    0.69   0.92 -999 -999 -999 -99.9  86.2 -999.9 20.8  1.012 -99.9 -99.99 -9.99
2019/06/24 21:54 EDT    0.70   0.95 -999 -999 -999 -99.9  86.2 -999.9 20.6  1.012 -99.9 -99.99 -9.99
2019/06/24 22:00 EDT    0.72   0.97 -999 -999 -999 -99.9  86.2 -999.9 20.7  1.012 -99.9 -99.99 -9.99
2019/06/24 22:06 EDT    0.73   0.99 -999 -999 -999 -99.9  86.2 -999.9 20.6  1.012 -99.9 -99.99 -9.99
2019/06/24 22:12 EDT    0.75   1.02 -999 -999 -999 -99.9  86.2 -999.9 20.7  1.012 -99.9 -99.99 -9.99
2019/06/24 22:18 EDT    0.78   1.04 -999 -999 -999 -99.9  86.0 -999.9 21.0  1.012 -99.9 -99.99 -9.99
2019/06/24 22:24 EDT    0.80   1.07 -999 -999 -999 -99.9  86.0 -999.9 20.9  1.012 -99.9 -99.99 -9.99
2019/06/24 22:30 EDT    0.83   1.10 -999 -999 -999 -99.9  86.0 -999.9 20.9  1.012 -99.9 -99.99 -9.99
2019/06/24 22:36 EDT    0.86   1.13 -999 -999 -999 -99.9  85.8 -999.9 21.1  1.012 -99.9 -99.99 -9.99
2019/06/24 22:42 EDT    0.89   1.17 -999 -999 -999 -99.9  85.6 -999.9 21.5  1.013 -99.9 -99.99 -9.99
2019/06/24 22:48 EDT    0.93   1.25 -999 -999 -999 -99.9  85.6 -999.9 20.8  1.012 -99.9 -99.99 -9.99
2019/06/24 22:54 EDT    0.97   1.31 -999 -999 -999 -99.9  85.6 -999.9 20.7  1.012 -99.9 -99.99 -9.99
2019/06/24 23:00 EDT    1.02   1.33 -999 -999 -999 -99.9  85.6 -999.9 20.6  1.012 -99.9 -99.99 -9.99
2019/06/24 23:06 EDT    1.06   1.40 -999 -999 -999 -99.9  85.5 -999.9 20.4  1.012 -99.9 -99.99 -9.99
2019/06/24 23:12 EDT    1.11   1.46 -999 -999 -999 -99.9  85.5 -999.9 20.1  1.012 -99.9 -99.99 -9.99
2019/06/24 23:18 EDT    1.17   1.57 -999 -999 -999 -99.9  85.5 -999.9 19.8  1.011 -99.9 -99.99 -9.99
2019/06/24 23:24 EDT    1.23   1.55 -999 -999 -999 -99.9  85.3 -999.9 20.1  1.012 -99.9 -99.99 -9.99
2019/06/24 23:30 EDT    1.29   1.65 -999 -999 -999 -99.9  85.3 -999.9 19.8  1.011 -99.9 -99.99 -9.99
2019/06/24 23:36 EDT    1.35   1.58 -999 -999 -999 -99.9  85.3 -999.9 20.1  1.012 -99.9 -99.99 -9.99
2019/06/24 23:42 EDT    1.42   1.84 -999 -999 -999 -99.9  85.3 -999.9 19.9  1.012 -99.9 -99.99 -9.99
2019/06/24 23:48 EDT    1.49   1.85 -999 -999 -999 -99.9  85.3 -999.9 19.6  1.011 -99.9 -99.99 -9.99
2019/06/24 23:54 EDT    1.56   1.93 -999 -999 -999 -99.9  84.7 -999.9 23.1  1.014 -99.9 -99.99 -9.99
2019/06/25 00:00 EDT    1.63   2.01 -999 -999 -999 -99.9  85.1 -999.9 20.1  1.012 -99.9 -99.99 -9.99
2019/06/25 00:06 EDT    1.70   2.10 -999 -999 -999 -99.9  85.1 -999.9 19.9  1.011 -99.9 -99.99 -9.99
2019/06/25 00:12 EDT    1.78   2.07 -999 -999 -999 -99.9  85.1 -999.9 19.6  1.011 -99.9 -99.99 -9.99
2019/06/25 00:18 EDT    1.86   2.22 -999 -999 -999 -99.9  85.1 -999.9 19.7  1.011 -99.9 -99.99 -9.99
2019/06/25 00:24 EDT    1.94   2.31 -999 -999 -999 -99.9  85.1 -999.9 19.7  1.011 -99.9 -99.99 -9.99
2019/06/25 00:30 EDT    2.02   2.36 -999 -999 -999 -99.9  84.7 -999.9 23.4  1.014 -99.9 -99.99 -9.99
2019/06/25 00:36 EDT    2.09   2.45 -999 -999 -999 -99.9  84.9 -999.9 20.9  1.012 -99.9 -99.99 -9.99
2019/06/25 00:42 EDT    2.17   2.52 -999 -999 -999 -99.9  84.7 -999.9 22.6  1.014 -99.9 -99.99 -9.99
2019/06/25 00:48 EDT    2.25   2.59 -999 -999 -999 -99.9  84.9 -999.9 20.6  1.012 -99.9 -99.99 -9.99
2019/06/25 00:54 EDT    2.33   2.64 -999 -999 -999 -99.9  84.7 -999.9 21.3  1.013 -99.9 -99.99 -9.99
2019/06/25 01:00 EDT    2.40   2.73 -999 -999 -999 -99.9  84.6 -999.9 23.1  1.014 -99.9 -99.99 -9.99
2019/06/25 01:06 EDT    2.47   2.79 -999 -999 -999 -99.9  84.7 -999.9 21.6  1.013 -99.9 -99.99 -9.99
2019/06/25 01:12 EDT    2.54   2.86 -999 -999 -999 -99.9  84.7 -999.9 21.9  1.013 -99.9 -99.99 -9.99
2019/06/25 01:18 EDT    2.61   2.93 -999 -999 -999 -99.9  84.7 -999.9 21.3  1.013 -99.9 -99.99 -9.99
2019/06/25 01:24 EDT    2.68   3.00 -999 -999 -999 -99.9  84.7 -999.9 20.7  1.012 -99.9 -99.99 -9.99
2019/06/25 01:30 EDT    2.74   3.05 -999 -999 -999 -99.9  84.4 -999.9 20.9  1.012 -99.9 -99.99 -9.99
2019/06/25 01:36 EDT    2.79   3.11 -999 -999 -999 -99.9  84.6 -999.9 21.3  1.013 -99.9 -99.99 -9.99
2019/06/25 01:42 EDT    2.85   3.17 -999 -999 -999 -99.9  84.7 -999.9 21.9  1.013 -99.9 -99.99 -9.99
2019/06/25 01:48 EDT    2.90   3.22 -999 -999 -999 -99.9  84.9 -999.9 21.7  1.013 -99.9 -99.99 -9.99
2019/06/25 01:54 EDT    2.95   3.28 -999 -999 -999 -99.9  84.9 -999.9 21.7  1.013 -99.9 -99.99 -9.99
2019/06/25 02:00 EDT    2.99   3.32 -999 -999 -999 -99.9  84.9 -999.9 21.6  1.013 -99.9 -99.99 -9.99
2019/06/25 02:06 EDT    3.03   3.35 -999 -999 -999 -99.9  84.7 -999.9 21.3  1.013 -99.9 -99.99 -9.99
2019/06/25 02:12 EDT    3.06   3.40 -999 -999 -999 -99.9  84.7 -999.9 21.0  1.012 -99.9 -99.99 -9.99
2019/06/25 02:18 EDT    3.09   3.44 -999 -999 -999 -99.9  84.7 -999.9 20.7  1.012 -99.9 -99.99 -9.99
2019/06/25 02:24 EDT    3.12   3.47 -999 -999 -999 -99.9  84.7 -999.9 20.5  1.012 -99.9 -99.99 -9.99
2019/06/25 02:30 EDT    3.14   3.50 -999 -999 -999 -99.9  84.7 -999.9 20.3  1.012 -99.9 -99.99 -9.99
2019/06/25 02:36 EDT    3.16   3.51 -999 -999 -999 -99.9  84.7 -999.9 20.7  1.012 -99.9 -99.99 -9.99
2019/06/25 02:42 EDT    3.18   3.54 -999 -999 -999 -99.9  84.7 -999.9 20.7  1.012 -99.9 -99.99 -9.99
2019/06/25 02:48 EDT    3.19   3.54 -999 -999 -999 -99.9  84.7 -999.9 20.3  1.012 -99.9 -99.99 -9.99
2019/06/25 02:54 EDT    3.20   3.56 -999 -999 -999 -99.9  84.7 -999.9 20.4  1.012 -99.9 -99.99 -9.99
2019/06/25 03:00 EDT    3.21   3.57 -999 -999 -999 -99.9  84.7 -999.9 20.8  1.012 -99.9 -99.99 -9.99
2019/06/25 03:06 EDT    3.21   3.58 -999 -999 -999 -99.9  84.7 -999.9 20.9  1.012 -99.9 -99.99 -9.99
2019/06/25 03:12 EDT    3.22   3.58 -999 -999 -999 -99.9  84.7 -999.9 20.9  1.012 -99.9 -99.99 -9.99
2019/06/25 03:18 EDT    3.22   3.59 -999 -999 -999 -99.9  84.7 -999.9 20.9  1.012 -99.9 -99.99 -9.99
2019/06/25 03:24 EDT    3.21   3.59 -999 -999 -999 -99.9  84.7 -999.9 21.2  1.013 -99.9 -99.99 -9.99
2019/06/25 03:30 EDT    3.21   3.57 -999 -999 -999 -99.9  84.7 -999.9 21.2  1.013 -99.9 -99.99 -9.99
2019/06/25 03:36 EDT    3.21   3.57 -999 -999 -999 -99.9  84.7 -999.9 21.5  1.013 -99.9 -99.99 -9.99
2019/06/25 03:42 EDT    3.20   3.57 -999 -999 -999 -99.9  84.7 -999.9 21.4  1.013 -99.9 -99.99 -9.99
2019/06/25 03:48 EDT    3.19   3.56 -999 -999 -999 -99.9  84.7 -999.9 21.3  1.013 -99.9 -99.99 -9.99
2019/06/25 03:54 EDT    3.18   3.54 -999 -999 -999 -99.9  84.7 -999.9 21.5  1.013 -99.9 -99.99 -9.99
2019/06/25 04:00 EDT    3.17   3.52 -999 -999 -999 -99.9  84.7 -999.9 21.9  1.013 -99.9 -99.99 -9.99
2019/06/25 04:06 EDT    3.15   3.50 -999 -999 -999 -99.9  84.7 -999.9 21.9  1.013 -99.9 -99.99 -9.99
2019/06/25 04:12 EDT    3.14   3.48 -999 -999 -999 -99.9  84.7 -999.9 22.1  1.013 -99.9 -99.99 -9.99
2019/06/25 04:18 EDT    3.12   3.46 -999 -999 -999 -99.9  84.7 -999.9 22.1  1.013 -99.9 -99.99 -9.99
2019/06/25 04:24 EDT    3.10   3.42 -999 -999 -999 -99.9  84.6 -999.9 21.9  1.013 -99.9 -99.99 -9.99
2019/06/25 04:30 EDT    3.08   3.39 -999 -999 -999 -99.9  84.6 -999.9 22.2  1.013 -99.9 -99.99 -9.99
2019/06/25 04:36 EDT    3.05   3.35 -999 -999 -999 -99.9  84.6 -999.9 22.2  1.013 -99.9 -99.99 -9.99
2019/06/25 04:42 EDT    3.03   3.32 -999 -999 -999 -99.9  84.6 -999.9 22.3  1.013 -99.9 -99.99 -9.99
2019/06/25 04:48 EDT    3.00   3.28 -999 -999 -999 -99.9  84.4 -999.9 22.8  1.014 -99.9 -99.99 -9.99
2019/06/25 04:54 EDT    2.97   3.24 -999 -999 -999 -99.9  84.4 -999.9 22.8  1.014 -99.9 -99.99 -9.99
2019/06/25 05:00 EDT    2.93   3.19 -999 -999 -999 -99.9  84.4 -999.9 24.5  1.015 -99.9 -99.99 -9.99
2019/06/25 05:06 EDT    2.89   3.13 -999 -999 -999 -99.9  84.4 -999.9 23.1  1.014 -99.9 -99.99 -9.99
2019/06/25 05:12 EDT    2.85   3.05 -999 -999 -999 -99.9  84.4 -999.9 23.5  1.014 -99.9 -99.99 -9.99
2019/06/25 05:18 EDT    2.80   3.01 -999 -999 -999 -99.9  84.4 -999.9 23.8  1.015 -99.9 -99.99 -9.99
2019/06/25 05:24 EDT    2.75   2.94 -999 -999 -999 -99.9  84.4 -999.9 23.5  1.014 -99.9 -99.99 -9.99
2019/06/25 05:30 EDT    2.69   2.87 -999 -999 -999 -99.9  84.4 -999.9 23.7  1.014 -99.9 -99.99 -9.99
2019/06/25 05:36 EDT    2.63   2.79 -999 -999 -999 -99.9  84.4 -999.9 23.8  1.015 -99.9 -99.99 -9.99
2019/06/25 05:42 EDT    2.57   2.71 -999 -999 -999 -99.9  84.4 -999.9 24.9  1.015 -99.9 -99.99 -9.99
2019/06/25 05:48 EDT    2.51   2.64 -999 -999 -999 -99.9  84.6 -999.9 24.7  1.015 -99.9 -99.99 -9.99
2019/06/25 05:54 EDT    2.44   2.56 -999 -999 -999 -99.9  84.4 -999.9 24.9  1.015 -99.9 -99.99 -9.99
2019/06/25 06:00 EDT    2.36   2.46 -999 -999 -999 -99.9  84.4 -999.9 25.8  1.016 -99.9 -99.99 -9.99
2019/06/25 06:06 EDT    2.29   2.38 -999 -999 -999 -99.9  84.6 -999.9 24.9  1.015 -99.9 -99.99 -9.99
2019/06/25 06:12 EDT    2.21   2.29 -999 -999 -999 -99.9  84.6 -999.9 24.1  1.015 -99.9 -99.99 -9.99
2019/06/25 06:18 EDT    2.13   2.22 -999 -999 -999 -99.9  84.6 -999.9 24.6  1.015 -99.9 -99.99 -9.99
2019/06/25 06:24 EDT    2.05   2.15 -999 -999 -999 -99.9  84.6 -999.9 23.7  1.014 -99.9 -99.99 -9.99
2019/06/25 06:30 EDT    1.96   2.10 -999 -999 -999 -99.9  84.7 -999.9 25.0  1.015 -99.9 -99.99 -9.99
2019/06/25 06:36 EDT    1.88   2.01 -999 -999 -999 -99.9  84.7 -999.9 25.0  1.015 -99.9 -99.99 -9.99
2019/06/25 06:42 EDT    1.79   1.93 -999 -999 -999 -99.9  84.7 -999.9 24.9  1.015 -99.9 -99.99 -9.99
2019/06/25 06:48 EDT    1.71   1.85 -999 -999 -999 -99.9  84.7 -999.9 24.9  1.015 -99.9 -99.99 -9.99
2019/06/25 06:54 EDT    1.62   1.75 -999 -999 -999 -99.9  84.6 -999.9 24.7  1.015 -99.9 -99.99 -9.99
2019/06/25 07:00 EDT    1.54   1.67 -999 -999 -999 -99.9  84.6 -999.9 24.8  1.015 -99.9 -99.99 -9.99
2019/06/25 07:06 EDT    1.46   1.61 -999 -999 -999 -99.9  84.4 -999.9 24.7  1.015 -99.9 -99.99 -9.99
2019/06/25 07:12 EDT    1.38   1.53 -999 -999 -999 -99.9  84.4 -999.9 24.7  1.015 -99.9 -99.99 -9.99
2019/06/25 07:18 EDT    1.30   1.47 -999 -999 -999 -99.9  84.4 -999.9 25.0  1.015 -99.9 -99.99 -9.99
2019/06/25 07:24 EDT    1.22   1.41 -999 -999 -999 -99.9  84.4 -999.9 24.5  1.015 -99.9 -99.99 -9.99
2019/06/25 07:30 EDT    1.15   1.30 -999 -999 -999 -99.9  84.4 -999.9 24.6  1.015 -99.9 -99.99 -9.99
2019/06/25 07:36 EDT    1.07   1.26 -999 -999 -999 -99.9  84.4 -999.9 24.5  1.015 -99.9 -99.99 -9.99
2019/06/25 07:42 EDT    1.01   1.18 -999 -999 -999 -99.9  84.4 -999.9 25.2  1.016 -99.9 -99.99 -9.99
2019/06/25 07:48 EDT    0.94   1.14 -999 -999 -999 -99.9  84.4 -999.9 25.2  1.016 -99.9 -99.99 -9.99
2019/06/25 07:54 EDT    0.88   1.06 -999 -999 -999 -99.9  84.2 -999.9 24.0  1.015 -99.9 -99.99 -9.99
2019/06/25 08:00 EDT    0.82   1.02 -999 -999 -999 -99.9  84.2 -999.9 23.9  1.015 -99.9 -99.99 -9.99
2019/06/25 08:06 EDT    0.77   0.98 -999 -999 -999 -99.9  84.2 -999.9 23.1  1.014 -99.9 -99.99 -9.99
2019/06/25 08:12 EDT    0.72   0.92 -999 -999 -999 -99.9  84.2 -999.9 22.8  1.014 -99.9 -99.99 -9.99
2019/06/25 08:18 EDT    0.67   0.88 -999 -999 -999 -99.9  84.2 -999.9 23.0  1.014 -99.9 -99.99 -9.99
2019/06/25 08:24 EDT    0.63   0.82 -999 -999 -999 -99.9  84.2 -999.9 22.6  1.014 -99.9 -99.99 -9.99
2019/06/25 08:30 EDT    0.59   0.76 -999 -999 -999 -99.9  84.2 -999.9 22.4  1.014 -99.9 -99.99 -9.99
2019/06/25 08:36 EDT    0.55   0.73 -999 -999 -999 -99.9  84.2 -999.9 22.5  1.014 -99.9 -99.99 -9.99
2019/06/25 08:42 EDT    0.52   0.67 -999 -999 -999 -99.9  84.2 -999.9 22.7  1.014 -99.9 -99.99 -9.99
2019/06/25 08:48 EDT    0.49   0.64 -999 -999 -999 -99.9  84.2 -999.9 23.2  1.014 -99.9 -99.99 -9.99
2019/06/25 08:54 EDT    0.46   0.60 -999 -999 -999 -99.9  84.2 -999.9 22.8  1.014 -99.9 -99.99 -9.99
2019/06/25 09:00 EDT    0.43   0.58 -999 -999 -999 -99.9  84.2 -999.9 22.9  1.014 -99.9 -99.99 -9.99
2019/06/25 09:06 EDT    0.41   0.56 -999 -999 -999 -99.9  84.4 -999.9 23.3  1.014 -99.9 -99.99 -9.99
2019/06/25 09:12 EDT    0.39   0.53 -999 -999 -999 -99.9  84.4 -999.9 23.1  1.014 -99.9 -99.99 -9.99
2019/06/25 09:18 EDT    0.38   0.51 -999 -999 -999 -99.9  84.4 -999.9 22.9  1.014 -99.9 -99.99 -9.99
2019/06/25 09:24 EDT    0.36   0.48 -999 -999 -999 -99.9  84.4 -999.9 23.1  1.014 -99.9 -99.99 -9.99
2019/06/25 09:30 EDT    0.35   0.47 -999 -999 -999 -99.9  84.4 -999.9 22.7  1.014 -99.9 -99.99 -9.99
2019/06/25 09:36 EDT    0.34   0.44 -999 -999 -999 -99.9  84.4 -999.9 22.0  1.013 -99.9 -99.99 -9.99
2019/06/25 09:42 EDT    0.33   0.45 -999 -999 -999 -99.9  84.4 -999.9 22.6  1.014 -99.9 -99.99 -9.99
2019/06/25 09:48 EDT    0.33   0.43 -999 -999 -999 -99.9  84.4 -999.9 23.8  1.015 -99.9 -99.99 -9.99
2019/06/25 09:54 EDT    0.32   0.41 -999 -999 -999 -99.9  84.4 -999.9 21.4  1.013 -99.9 -99.99 -9.99
2019/06/25 10:00 EDT    0.32   0.43 -999 -999 -999 -99.9  84.4 -999.9 21.8  1.013 -99.9 -99.99 -9.99
2019/06/25 10:06 EDT    0.33   0.44 -999 -999 -999 -99.9  84.4 -999.9 21.1  1.013 -99.9 -99.99 -9.99
2019/06/25 10:12 EDT    0.33   0.42 -999 -999 -999 -99.9  84.4 -999.9 21.2  1.013 -99.9 -99.99 -9.99
2019/06/25 10:18 EDT    0.34   0.41 -999 -999 -999 -99.9  84.4 -999.9 21.1  1.013 -99.9 -99.99 -9.99
2019/06/25 10:24 EDT    0.35   0.43 -999 -999 -999 -99.9  84.6 -999.9 20.6  1.012 -99.9 -99.99 -9.99
2019/06/25 10:30 EDT    0.37   0.44 -999 -999 -999 -99.9  84.6 -999.9 20.7  1.012 -99.9 -99.99 -9.99
2019/06/25 10:36 EDT    0.38   0.46 -999 -999 -999 -99.9  84.6 -999.9 21.0  1.012 -99.9 -99.99 -9.99
2019/06/25 10:42 EDT    0.40   0.49 -999 -999 -999 -99.9  84.6 -999.9 20.9  1.012 -99.9 -99.99 -9.99
2019/06/25 10:48 EDT    0.43   0.50 -999 -999 -999 -99.9  84.6 -999.9 20.8  1.012 -99.9 -99.99 -9.99
2019/06/25 10:54 EDT    0.46   0.52 -999 -999 -999 -99.9  84.6 -999.9 20.6  1.012 -99.9 -99.99 -9.99
2019/06/25 11:00 EDT    0.49   0.57 -999 -999 -999 -99.9  84.6 -999.9 20.5  1.012 -99.9 -99.99 -9.99
2019/06/25 11:06 EDT    0.52   0.61 -999 -999 -999 -99.9  84.7 -999.9 20.3  1.012 -99.9 -99.99 -9.99
2019/06/25 11:12 EDT    0.56   0.66 -999 -999 -999 -99.9  84.7 -999.9 20.4  1.012 -99.9 -99.99 -9.99
2019/06/25 11:18 EDT    0.61   0.69 -999 -999 -999 -99.9  84.7 -999.9 20.2  1.012 -99.9 -99.99 -9.99
2019/06/25 11:24 EDT    0.65   0.76 -999 -999 -999 -99.9  84.7 -999.9 20.5  1.012 -99.9 -99.99 -9.99
2019/06/25 11:30 EDT    0.70   0.84 -999 -999 -999 -99.9  84.7 -999.9 20.5  1.012 -99.9 -99.99 -9.99
2019/06/25 11:36 EDT    0.76   0.90 -999 -999 -999 -99.9  84.7 -999.9 20.3  1.012 -99.9 -99.99 -9.99
2019/06/25 11:42 EDT    0.82   0.97 -999 -999 -999 -99.9  84.7 -999.9 20.6  1.012 -99.9 -99.99 -9.99
2019/06/25 11:48 EDT    0.88   1.02 -999 -999 -999 -99.9  84.9 -999.9 20.2  1.012 -99.9 -99.99 -9.99
2019/06/25 11:54 EDT    0.95   1.10 -999 -999 -999 -99.9  84.9 -999.9 20.0  1.012 -99.9 -99.99 -9.99
2019/06/25 12:00 EDT    1.02   1.18 -999 -999 -999 -99.9  84.9 -999.9 20.2  1.012 -99.9 -99.99 -9.99
2019/06/25 12:06 EDT    1.09   1.25 -999 -999 -999 -99.9  84.9 -999.9 20.0  1.012 -99.9 -99.99 -9.99
2019/06/25 12:12 EDT    1.16   1.34 -999 -999 -999 -99.9  85.1 -999.9 19.8  1.011 -99.9 -99.99 -9.99
2019/06/25 12:18 EDT    1.24   1.43 -999 -999 -999 -99.9  85.1 -999.9 19.8  1.011 -99.9 -99.99 -9.99
2019/06/25 12:24 EDT    1.32   1.54 -999 -999 -999 -99.9  84.9 -999.9 20.0  1.012 -99.9 -99.99 -9.99
2019/06/25 12:30 EDT    1.40   1.62 -999 -999 -999 -99.9  85.1 -999.9 20.3  1.012 -99.9 -99.99 -9.99
2019/06/25 12:36 EDT    1.49   1.71 -999 -999 -999 -99.9  84.9 -999.9 20.5  1.012 -99.9 -99.99 -9.99
2019/06/25 12:42 EDT    1.57   1.80 -999 -999 -999 -99.9  85.1 -999.9 20.2  1.012 -99.9 -99.99 -9.99
2019/06/25 12:48 EDT    1.66   1.89 -999 -999 -999 -99.9  85.1 -999.9 20.2  1.012 -99.9 -99.99 -9.99
2019/06/25 12:54 EDT    1.75   1.98 -999 -999 -999 -99.9  85.3 -999.9 20.0  1.012 -99.9 -99.99 -9.99
2019/06/25 13:00 EDT    1.83   2.07 -999 -999 -999 -99.9  85.6 -999.9 19.9  1.011 -99.9 -99.99 -9.99
2019/06/25 13:06 EDT    1.92   2.17 -999 -999 -999 -99.9  85.5 -999.9 19.8  1.011 -99.9 -99.99 -9.99
2019/06/25 13:12 EDT    2.00   2.26 -999 -999 -999 -99.9  85.5 -999.9 19.6  1.011 -99.9 -99.99 -9.99
2019/06/25 13:18 EDT    2.09   2.36 -999 -999 -999 -99.9  85.1 -999.9 20.2  1.012 -99.9 -99.99 -9.99
2019/06/25 13:24 EDT    2.17   2.45 -999 -999 -999 -99.9  85.1 -999.9 20.5  1.012 -99.9 -99.99 -9.99
2019/06/25 13:30 EDT    2.25   2.53 -999 -999 -999 -99.9  85.1 -999.9 20.4  1.012 -99.9 -99.99 -9.99
2019/06/25 13:36 EDT    2.33   2.63 -999 -999 -999 -99.9  85.3 -999.9 20.3  1.012 -99.9 -99.99 -9.99
2019/06/25 13:42 EDT    2.41   2.72 -999 -999 -999 -99.9  85.8 -999.9 20.0  1.011 -99.9 -99.99 -9.99
2019/06/25 13:48 EDT    2.48   2.80 -999 -999 -999 -99.9  86.0 -999.9 20.0  1.011 -99.9 -99.99 -9.99
2019/06/25 13:54 EDT    2.55   2.88 -999 -999 -999 -99.9  86.0 -999.9 20.3  1.012 -99.9 -99.99 -9.99
2019/06/25 14:00 EDT    2.62   2.96 -999 -999 -999 -99.9  85.8 -999.9 20.1  1.012 -99.9 -99.99 -9.99
2019/06/25 14:06 EDT    2.68   3.06 -999 -999 -999 -99.9  86.0 -999.9 20.1  1.012 -99.9 -99.99 -9.99
2019/06/25 14:12 EDT    2.74   3.13 -999 -999 -999 -99.9  85.6 -999.9 21.6  1.013 -99.9 -99.99 -9.99
2019/06/25 14:18 EDT    2.79   3.17 -999 -999 -999 -99.9  85.6 -999.9 21.9  1.013 -99.9 -99.99 -9.99
2019/06/25 14:24 EDT    2.84   3.21 -999 -999 -999 -99.9  85.6 -999.9 20.8  1.012 -99.9 -99.99 -9.99
2019/06/25 14:30 EDT    2.89   3.26 -999 -999 -999 -99.9  85.6 -999.9 19.9  1.011 -99.9 -99.99 -9.99
2019/06/25 14:36 EDT    2.93   3.32 -999 -999 -999 -99.9  85.6 -999.9 19.8  1.011 -99.9 -99.99 -9.99
2019/06/25 14:42 EDT    2.97   3.38 -999 -999 -999 -99.9  85.6 -999.9 19.7  1.011 -99.9 -99.99 -9.99
2019/06/25 14:48 EDT    3.00   3.43 -999 -999 -999 -99.9  85.6 -999.9 19.9  1.011 -99.9 -99.99 -9.99
2019/06/25 14:54 EDT    3.03   3.47 -999 -999 -999 -99.9  85.8 -999.9 20.0  1.011 -99.9 -99.99 -9.99
2019/06/25 15:00 EDT    3.06   3.48 -999 -999 -999 -99.9  85.8 -999.9 20.3  1.012 -99.9 -99.99 -9.99
2019/06/25 15:06 EDT    3.08   3.50 -999 -999 -999 -99.9  85.6 -999.9 20.5  1.012 -99.9 -99.99 -9.99
2019/06/25 15:12 EDT    3.10   3.52 -999 -999 -999 -99.9  85.6 -999.9 20.6  1.012 -99.9 -99.99 -9.99
2019/06/25 15:18 EDT    3.12   3.54 -999 -999 -999 -99.9  85.6 -999.9 20.7  1.012 -99.9 -99.99 -9.99
2019/06/25 15:24 EDT    3.13   3.56 -999 -999 -999 -99.9  85.6 -999.9 21.1  1.012 -99.9 -99.99 -9.99
2019/06/25 15:30 EDT    3.14   3.57 -999 -999 -999 -99.9  85.6 -999.9 20.6  1.012 -99.9 -99.99 -9.99
2019/06/25 15:36 EDT    3.15   3.58 -999 -999 -999 -99.9  85.6 -999.9 21.0  1.012 -99.9 -99.99 -9.99
2019/06/25 15:42 EDT    3.15   3.59 -999 -999 -999 -99.9  85.6 -999.9 20.9  1.012 -99.9 -99.99 -9.99
2019/06/25 15:48 EDT    3.16   3.61 -999 -999 -999 -99.9  85.6 -999.9 21.3  1.012 -99.9 -99.99 -9.99
2019/06/25 15:54 EDT    3.16   3.61 -999 -999 -999 -99.9  85.5 -999.9 20.7  1.012 -99.9 -99.99 -9.99
2019/06/25 16:00 EDT    3.16   3.60 -999 -999 -999 -99.9  85.6 -999.9 21.2  1.012 -99.9 -99.99 -9.99
2019/06/25 16:06 EDT    3.16   3.59 -999 -999 -999 -99.9  85.5 -999.9 21.3  1.013 -99.9 -99.99 -9.99
2019/06/25 16:12 EDT    3.15   3.60 -999 -999 -999 -99.9  85.6 -999.9 21.4  1.013 -99.9 -99.99 -9.99
2019/06/25 16:18 EDT    3.15   3.60 -999 -999 -999 -99.9  85.8 -999.9 21.6  1.013 -99.9 -99.99 -9.99
2019/06/25 16:24 EDT    3.14   3.60 -999 -999 -999 -99.9  85.8 -999.9 21.7  1.013 -99.9 -99.99 -9.99
2019/06/25 16:30 EDT    3.13   3.58 -999 -999 -999 -99.9  85.8 -999.9 21.9  1.013 -99.9 -99.99 -9.99
2019/06/25 16:36 EDT    3.12   3.58 -999 -999 -999 -99.9  85.8 -999.9 22.0  1.013 -99.9 -99.99 -9.99
2019/06/25 16:42 EDT    3.11   3.56 -999 -999 -999 -99.9  85.8 -999.9 22.2  1.013 -99.9 -99.99 -9.99
2019/06/25 16:48 EDT    3.09   3.55 -999 -999 -999 -99.9  85.8 -999.9 22.2  1.013 -99.9 -99.99 -9.99
2019/06/25 16:54 EDT    3.08   3.54 -999 -999 -999 -99.9  85.8 -999.9 22.2  1.013 -99.9 -99.99 -9.99
2019/06/25 17:00 EDT    3.06   3.53 -999 -999 -999 -99.9  85.8 -999.9 22.8  1.014 -99.9 -99.99 -9.99
2019/06/25 17:06 EDT    3.04   3.50 -999 -999 -999 -99.9  85.8 -999.9 23.2  1.014 -99.9 -99.99 -9.99
2019/06/25 17:12 EDT    3.01   3.48 -999 -999 -999 -99.9  85.8 -999.9 23.5  1.014 -99.9 -99.99 -9.99
2019/06/25 17:18 EDT    2.99   3.47 -999 -999 -999 -99.9  85.8 -999.9 24.3  1.015 -99.9 -99.99 -9.99
2019/06/25 17:24 EDT    2.96   3.44 -999 -999 -999 -99.9  85.6 -999.9 24.6  1.015 -99.9 -99.99 -9.99
2019/06/25 17:30 EDT    2.92   3.41 -999 -999 -999 -99.9  85.6 -999.9 25.3  1.015 -99.9 -99.99 -9.99
2019/06/25 17:36 EDT    2.89   3.38 -999 -999 -999 -99.9  85.5 -999.9 25.1  1.015 -99.9 -99.99 -9.99
2019/06/25 17:42 EDT    2.85   3.35 -999 -999 -999 -99.9  85.5 -999.9 25.2  1.015 -99.9 -99.99 -9.99
2019/06/25 17:48 EDT    2.80   3.30 -999 -999 -999 -99.9  85.5 -999.9 25.3  1.016 -99.9 -99.99 -9.99
2019/06/25 17:54 EDT    2.75   3.27 -999 -999 -999 -99.9  85.3 -999.9 25.6  1.016 -99.9 -99.99 -9.99
2019/06/25 18:00 EDT    2.70   3.23 -999 -999 -999 -99.9  85.3 -999.9 25.6  1.016 -99.9 -99.99 -9.99
2019/06/25 18:06 EDT    2.65   3.18 -999 -999 -999 -99.9  85.1 -999.9 25.8  1.016 -99.9 -99.99 -9.99
2019/06/25 18:12 EDT    2.59   3.11 -999 -999 -999 -99.9  85.1 -999.9 25.6  1.016 -99.9 -99.99 -9.99
2019/06/25 18:18 EDT    2.53   3.05 -999 -999 -999 -99.9  85.3 -999.9 25.6  1.016 -99.9 -99.99 -9.99
2019/06/25 18:24 EDT    2.46   2.98 -999 -999 -999 -99.9  85.1 -999.9 25.9  1.016 -99.9 -99.99 -9.99
2019/06/25 18:30 EDT    2.40   2.92 -999 -999 -999 -99.9  85.1 -999.9 25.9  1.016 -99.9 -99.99 -9.99
2019/06/25 18:36 EDT    2.33   2.85 -999 -999 -999 -99.9  85.3 -999.9 25.7  1.016 -99.9 -99.99 -9.99
2019/06/25 18:42 EDT    2.26   2.77 -999 -999 -999 -99.9  85.1 -999.9 25.5  1.016 -99.9 -99.99 -9.99
2019/06/25 18:48 EDT    2.18   2.68 -999 -999 -999 -99.9  85.1 -999.9 26.1  1.016 -99.9 -99.99 -9.99
2019/06/25 18:54 EDT    2.11   2.59 -999 -999 -999 -99.9  85.5 -999.9 25.5  1.016 -99.9 -99.99 -9.99
2019/06/25 19:00 EDT    2.03   2.50 -999 -999 -999 -99.9  85.6 -999.9 25.6  1.016 -99.9 -99.99 -9.99
2019/06/25 19:06 EDT    1.95   2.42 -999 -999 -999 -99.9  85.8 -999.9 25.7  1.016 -99.9 -99.99 -9.99
2019/06/25 19:12 EDT    1.88   2.33 -999 -999 -999 -99.9  85.8 -999.9 25.6  1.016 -99.9 -99.99 -9.99
2019/06/25 19:18 EDT    1.80   2.25 -999 -999 -999 -99.9  85.8 -999.9 25.5  1.016 -99.9 -99.99 -9.99
2019/06/25 19:24 EDT    1.72   2.17 -999 -999 -999 -99.9  85.8 -999.9 25.5  1.016 -99.9 -99.99 -9.99
2019/06/25 19:30 EDT    1.65   2.08 -999 -999 -999 -99.9  85.8 -999.9 25.5  1.016 -99.9 -99.99 -9.99
2019/06/25 19:36 EDT    1.58   1.99 -999 -999 -999 -99.9  85.8 -999.9 25.0  1.015 -99.9 -99.99 -9.99
2019/06/25 19:42 EDT    1.51   1.91 -999 -999 -999 -99.9  85.8 -999.9 25.2  1.015 -99.9 -99.99 -9.99
2019/06/25 19:48 EDT    1.44   1.84 -999 -999 -999 -99.9  85.8 -999.9 25.1  1.015 -99.9 -99.99 -9.99
2019/06/25 19:54 EDT    1.37   1.77 -999 -999 -999 -99.9  85.6 -999.9 25.3  1.015 -99.9 -99.99 -9.99
2019/06/25 20:00 EDT    1.31   1.69 -999 -999 -999 -99.9  85.5 -999.9 25.5  1.016 -99.9 -99.99 -9.99
2019/06/25 20:06 EDT    1.25   1.61 -999 -999 -999 -99.9  85.5 -999.9 25.2  1.015 -99.9 -99.99 -9.99
2019/06/25 20:12 EDT    1.19   1.54 -999 -999 -999 -99.9  85.6 -999.9 25.0  1.015 -99.9 -99.99 -9.99
2019/06/25 20:18 EDT    1.14   1.47 -999 -999 -999 -99.9  85.5 -999.9 25.1  1.015 -99.9 -99.99 -9.99
2019/06/25 20:24 EDT    1.09   1.40 -999 -999 -999 -99.9  85.5 -999.9 25.0  1.015 -99.9 -99.99 -9.99
2019/06/25 20:30 EDT    1.04   1.34 -999 -999 -999 -99.9  85.5 -999.9 25.2  1.015 -99.9 -99.99 -9.99
2019/06/25 20:36 EDT    1.00   1.28 -999 -999 -999 -99.9  85.1 -999.9 25.8  1.016 -99.9 -99.99 -9.99
2019/06/25 20:42 EDT    0.96   1.23 -999 -999 -999 -99.9  85.1 -999.9 25.6  1.016 -99.9 -99.99 -9.99
2019/06/25 20:48 EDT    0.93   1.19 -999 -999 -999 -99.9  85.3 -999.9 25.6  1.016 -99.9 -99.99 -9.99
2019/06/25 20:54 EDT    0.89   1.14 -999 -999 -999 -99.9  85.3 -999.9 25.5  1.016 -99.9 -99.99 -9.99
2019/06/25 21:00 EDT    0.86   1.10 -999 -999 -999 -99.9  85.1 -999.9 25.9  1.016 -99.9 -99.99 -9.99
2019/06/25 21:06 EDT    0.83   1.06 -999 -999 -999 -99.9  85.1 -999.9 25.6  1.016 -99.9 -99.99 -9.99
2019/06/25 21:12 EDT    0.81   1.03 -999 -999 -999 -99.9  85.3 -999.9 25.5  1.016 -99.9 -99.99 -9.99
2019/06/25 21:18 EDT    0.79   1.00 -999 -999 -999 -99.9  85.3 -999.9 25.0  1.015 -99.9 -99.99 -9.99
2019/06/25 21:24 EDT    0.77   0.98 -999 -999 -999 -99.9  85.3 -999.9 24.8  1.015 -99.9 -99.99 -9.99
2019/06/25 21:30 EDT    0.75   0.96 -999 -999 -999 -99.9  85.3 -999.9 24.9  1.015 -99.9 -99.99 -9.99
2019/06/25 21:36 EDT    0.74   0.94 -999 -999 -999 -99.9  85.1 -999.9 25.3  1.016 -99.9 -99.99 -9.99
2019/06/25 21:42 EDT    0.72   0.93 -999 -999 -999 -99.9  85.5 -999.9 23.9  1.014 -99.9 -99.99 -9.99
2019/06/25 21:48 EDT    0.71   0.93 -999 -999 -999 -99.9  85.6 -999.9 23.4  1.014 -99.9 -99.99 -9.99
2019/06/25 21:54 EDT    0.70   0.91 -999 -999 -999 -99.9  85.6 -999.9 23.3  1.014 -99.9 -99.99 -9.99
2019/06/25 22:00 EDT    0.70   0.91 -999 -999 -999 -99.9  85.6 -999.9 23.3  1.014 -99.9 -99.99 -9.99
2019/06/25 22:06 EDT    0.69   0.91 -999 -999 -999 -99.9  85.6 -999.9 23.4  1.014 -99.9 -99.99 -9.99
2019/06/25 22:12 EDT    0.69   0.91 -999 -999 -999 -99.9  85.6 -999.9 23.5  1.014 -99.9 -99.99 -9.99
2019/06/25 22:18 EDT    0.69   0.91 -999 -999 -999 -99.9  85.6 -999.9 23.4  1.014 -99.9 -99.99 -9.99
2019/06/25 22:24 EDT    0.69   0.92 -999 -999 -999 -99.9  85.6 -999.9 23.0  1.014 -99.9 -99.99 -9.99
2019/06/25 22:30 EDT    0.69   0.95 -999 -999 -999 -99.9  85.8 -999.9 22.6  1.013 -99.9 -99.99 -9.99
2019/06/25 22:36 EDT    0.70   0.97 -999 -999 -999 -99.9  86.0 -999.9 22.5  1.013 -99.9 -99.99 -9.99
2019/06/25 22:42 EDT    0.71   1.00 -999 -999 -999 -99.9  85.8 -999.9 22.6  1.013 -99.9 -99.99 -9.99
2019/06/25 22:48 EDT    0.72   1.02 -999 -999 -999 -99.9  85.8 -999.9 22.6  1.013 -99.9 -99.99 -9.99
2019/06/25 22:54 EDT    0.73   1.08 -999 -999 -999 -99.9  85.8 -999.9 22.5  1.013 -99.9 -99.99 -9.99
2019/06/25 23:00 EDT    0.74   1.04 -999 -999 -999 -99.9  85.8 -999.9 22.3  1.013 -99.9 -99.99 -9.99
2019/06/25 23:06 EDT    0.76   1.14 -999 -999 -999 -99.9  86.0 -999.9 22.0  1.013 -99.9 -99.99 -9.99
2019/06/25 23:12 EDT    0.78   1.15 -999 -999 -999 -99.9  85.8 -999.9 22.1  1.013 -99.9 -99.99 -9.99
2019/06/25 23:18 EDT    0.81   1.19 -999 -999 -999 -99.9  86.2 -999.9 21.7  1.013 -99.9 -99.99 -9.99
2019/06/25 23:24 EDT    0.84   1.23 -999 -999 -999 -99.9  86.2 -999.9 21.8  1.013 -99.9 -99.99 -9.99
2019/06/25 23:30 EDT    0.87   1.27 -999 -999 -999 -99.9  86.0 -999.9 22.2  1.013 -99.9 -99.99 -9.99
2019/06/25 23:36 EDT    0.90   1.35 -999 -999 -999 -99.9  85.8 -999.9 23.0  1.014 -99.9 -99.99 -9.99
2019/06/25 23:42 EDT    0.94   1.35 -999 -999 -999 -99.9  86.0 -999.9 21.7  1.013 -99.9 -99.99 -9.99
2019/06/25 23:48 EDT    0.98   1.46 -999 -999 -999 -99.9  86.2 -999.9 21.6  1.013 -99.9 -99.99 -9.99
2019/06/25 23:54 EDT    1.02   1.48 -999 -999 -999 -99.9  85.8 -999.9 23.0  1.014 -99.9 -99.99 -9.99
2019/06/26 00:00 EDT    1.07   1.54 -999 -999 -999 -99.9  86.2 -999.9 21.1  1.012 -99.9 -99.99 -9.99
2019/06/26 00:06 EDT    1.12   1.60 -999 -999 -999 -99.9  86.2 -999.9 21.2  1.012 -99.9 -99.99 -9.99
2019/06/26 00:12 EDT    1.18   1.68 -999 -999 -999 -99.9  86.0 -999.9 21.1  1.012 -99.9 -99.99 -9.99
2019/06/26 00:18 EDT    1.24   1.76 -999 -999 -999 -99.9  86.0 -999.9 20.8  1.012 -99.9 -99.99 -9.99
2019/06/26 00:24 EDT    1.30   1.82 -999 -999 -999 -99.9  86.0 -999.9 20.6  1.012 -99.9 -99.99 -9.99
2019/06/26 00:30 EDT    1.36   1.89 -999 -999 -999 -99.9  85.8 -999.9 20.7  1.012 -99.9 -99.99 -9.99
2019/06/26 00:36 EDT    1.43   1.96 -999 -999 -999 -99.9  85.8 -999.9 20.7  1.012 -99.9 -99.99 -9.99
2019/06/26 00:42 EDT    1.50   2.05 -999 -999 -999 -99.9  85.8 -999.9 20.6  1.012 -99.9 -99.99 -9.99
2019/06/26 00:48 EDT    1.57   2.11 -999 -999 -999 -99.9  85.6 -999.9 21.0  1.012 -99.9 -99.99 -9.99
2019/06/26 00:54 EDT    1.65   2.21 -999 -999 -999 -99.9  85.6 -999.9 20.5  1.012 -99.9 -99.99 -9.99
2019/06/26 01:00 EDT    1.72   2.26 -999 -999 -999 -99.9  85.6 -999.9 20.8  1.012 -99.9 -99.99 -9.99
2019/06/26 01:06 EDT    1.80   2.31 -999 -999 -999 -99.9  85.6 -999.9 20.9  1.012 -99.9 -99.99 -9.99
2019/06/26 01:12 EDT    1.87   2.40 -999 -999 -999 -99.9  85.5 -999.9 22.4  1.013 -99.9 -99.99 -9.99
2019/06/26 01:18 EDT    1.95   2.49 -999 -999 -999 -99.9  85.5 -999.9 21.9  1.013 -99.9 -99.99 -9.99
2019/06/26 01:24 EDT    2.03   2.56 -999 -999 -999 -99.9  85.5 -999.9 22.3  1.013 -99.9 -99.99 -9.99
2019/06/26 01:30 EDT    2.11   2.61 -999 -999 -999 -99.9  85.5 -999.9 21.9  1.013 -99.9 -99.99 -9.99
2019/06/26 01:36 EDT    2.18   2.70 -999 -999 -999 -99.9  85.5 -999.9 22.8  1.014 -99.9 -99.99 -9.99
2019/06/26 01:42 EDT    2.26   2.76 -999 -999 -999 -99.9  85.5 -999.9 21.1  1.012 -99.9 -99.99 -9.99
2019/06/26 01:48 EDT    2.34   2.84 -999 -999 -999 -99.9  85.5 -999.9 21.6  1.013 -99.9 -99.99 -9.99
2019/06/26 01:54 EDT    2.41   2.92 -999 -999 -999 -99.9  85.5 -999.9 21.5  1.013 -99.9 -99.99 -9.99
2019/06/26 02:00 EDT    2.48   2.98 -999 -999 -999 -99.9  85.5 -999.9 19.9  1.011 -99.9 -99.99 -9.99
2019/06/26 02:06 EDT    2.55   3.05 -999 -999 -999 -99.9  85.5 -999.9 19.9  1.011 -99.9 -99.99 -9.99
2019/06/26 02:12 EDT    2.61   3.10 -999 -999 -999 -99.9  85.5 -999.9 19.5  1.011 -99.9 -99.99 -9.99
2019/06/26 02:18 EDT    2.67   3.17 -999 -999 -999 -99.9  85.5 -999.9 19.6  1.011 -99.9 -99.99 -9.99
2019/06/26 02:24 EDT    2.73   3.23 -999 -999 -999 -99.9 -99.9 -999.9 -9.9 -9.999 -99.9 -99.99 -9.99
2019/06/26 02:30 EDT    2.79   3.28 -999 -999 -999 -99.9  85.5 -999.9 20.4  1.012 -99.9 -99.99 -9.99
2019/06/26 02:36 EDT    2.84   3.34 -999 -999 -999 -99.9  85.5 -999.9 20.5  1.012 -99.9 -99.99 -9.99
2019/06/26 02:42 EDT    2.89   3.39 -999 -999 -999 -99.9  85.3 -999.9 20.4  1.012 -99.9 -99.99 -9.99
2019/06/26 02:48 EDT    2.93   3.43 -999 -999 -999 -99.9  85.3 -999.9 20.7  1.012 -99.9 -99.99 -9.99
2019/06/26 02:54 EDT    2.97   3.47 -999 -999 -999 -99.9  85.3 -999.9 20.4  1.012 -99.9 -99.99 -9.99
2019/06/26 03:00 EDT    3.01   3.50 -999 -999 -999 -99.9  85.3 -999.9 20.1  1.012 -99.9 -99.99 -9.99
2019/06/26 03:06 EDT    3.04   3.54 -999 -999 -999 -99.9  85.3 -999.9 20.9  1.012 -99.9 -99.99 -9.99
2019/06/26 03:12 EDT    3.07   3.57 -999 -999 -999 -99.9  85.3 -999.9 21.2  1.012 -99.9 -99.99 -9.99
2019/06/26 03:18 EDT    3.09   3.61 -999 -999 -999 -99.9  85.3 -999.9 20.3  1.012 -99.9 -99.99 -9.99
2019/06/26 03:24 EDT    3.11   3.64 -999 -999 -999 -99.9  85.3 -999.9 20.9  1.012 -99.9 -99.99 -9.99
2019/06/26 03:30 EDT    3.13   3.65 -999 -999 -999 -99.9  85.3 -999.9 21.1  1.012 -99.9 -99.99 -9.99
2019/06/26 03:36 EDT    3.14   3.66 -999 -999 -999 -99.9  85.3 -999.9 20.9  1.012 -99.9 -99.99 -9.99
2019/06/26 03:42 EDT    3.15   3.66 -999 -999 -999 -99.9  85.3 -999.9 21.4  1.013 -99.9 -99.99 -9.99
2019/06/26 03:48 EDT    3.16   3.67 -999 -999 -999 -99.9  85.3 -999.9 20.6  1.012 -99.9 -99.99 -9.99
2019/06/26 03:54 EDT    3.16   3.68 -999 -999 -999 -99.9  85.3 -999.9 21.1  1.012 -99.9 -99.99 -9.99
2019/06/26 04:00 EDT    3.17   3.68 -999 -999 -999 -99.9  85.3 -999.9 21.3  1.013 -99.9 -99.99 -9.99
2019/06/26 04:06 EDT    3.17   3.69 -999 -999 -999 -99.9  85.3 -999.9 21.4  1.013 -99.9 -99.99 -9.99
2019/06/26 04:12 EDT    3.16   3.69 -999 -999 -999 -99.9  85.3 -999.9 21.5  1.013 -99.9 -99.99 -9.99
2019/06/26 04:18 EDT    3.16   3.68 -999 -999 -999 -99.9  85.3 -999.9 21.9  1.013 -99.9 -99.99 -9.99
2019/06/26 04:24 EDT    3.15   3.68 -999 -999 -999 -99.9  85.3 -999.9 21.9  1.013 -99.9 -99.99 -9.99
2019/06/26 04:30 EDT    3.15   3.67 -999 -999 -999 -99.9  85.3 -999.9 22.5  1.013 -99.9 -99.99 -9.99
2019/06/26 04:36 EDT    3.14   3.66 -999 -999 -999 -99.9  85.3 -999.9 22.4  1.013 -99.9 -99.99 -9.99
2019/06/26 04:42 EDT    3.13   3.64 -999 -999 -999 -99.9  85.1 -999.9 21.8  1.013 -99.9 -99.99 -9.99
2019/06/26 04:48 EDT    3.12   3.63 -999 -999 -999 -99.9  85.1 -999.9 23.4  1.014 -99.9 -99.99 -9.99
2019/06/26 04:54 EDT    3.10   3.61 -999 -999 -999 -99.9  85.1 -999.9 23.0  1.014 -99.9 -99.99 -9.99
2019/06/26 05:00 EDT    3.09   3.59 -999 -999 -999 -99.9  85.1 -999.9 23.7  1.014 -99.9 -99.99 -9.99
2019/06/26 05:06 EDT    3.07   3.56 -999 -999 -999 -99.9  84.9 -999.9 23.7  1.014 -99.9 -99.99 -9.99
2019/06/26 05:12 EDT    3.05   3.54 -999 -999 -999 -99.9  84.9 -999.9 23.6  1.014 -99.9 -99.99 -9.99
2019/06/26 05:18 EDT    3.03   3.50 -999 -999 -999 -99.9  85.1 -999.9 23.9  1.014 -99.9 -99.99 -9.99
2019/06/26 05:24 EDT    3.01   3.47 -999 -999 -999 -99.9  85.1 -999.9 23.9  1.015 -99.9 -99.99 -9.99
2019/06/26 05:30 EDT    2.98   3.43 -999 -999 -999 -99.9  84.9 -999.9 25.0  1.015 -99.9 -99.99 -9.99
2019/06/26 05:36 EDT    2.95   3.40 -999 -999 -999 -99.9  84.7 -999.9 25.4  1.016 -99.9 -99.99 -9.99
2019/06/26 05:42 EDT    2.92   3.36 -999 -999 -999 -99.9  84.7 -999.9 25.4  1.016 -99.9 -99.99 -9.99
2019/06/26 05:48 EDT    2.88   3.32 -999 -999 -999 -99.9  84.7 -999.9 25.8  1.016 -99.9 -99.99 -9.99
2019/06/26 05:54 EDT    2.84   3.27 -999 -999 -999 -99.9  84.7 -999.9 26.5  1.016 -99.9 -99.99 -9.99
2019/06/26 06:00 EDT    2.80   3.23 -999 -999 -999 -99.9  84.7 -999.9 25.4  1.016 -99.9 -99.99 -9.99
2019/06/26 06:06 EDT    2.76   3.18 -999 -999 -999 -99.9  84.7 -999.9 26.0  1.016 -99.9 -99.99 -9.99
2019/06/26 06:12 EDT    2.71   3.12 -999 -999 -999 -99.9  84.7 -999.9 25.6  1.016 -99.9 -99.99 -9.99
2019/06/26 06:18 EDT    2.65   3.06 -999 -999 -999 -99.9  84.7 -999.9 25.7  1.016 -99.9 -99.99 -9.99
2019/06/26 06:24 EDT    2.59   3.00 -999 -999 -999 -99.9  84.7 -999.9 25.8  1.016 -99.9 -99.99 -9.99
2019/06/26 06:30 EDT    2.53   2.92 -999 -999 -999 -99.9  84.7 -999.9 26.1  1.016 -99.9 -99.99 -9.99
2019/06/26 06:36 EDT    2.47   2.85 -999 -999 -999 -99.9  84.7 -999.9 26.1  1.016 -99.9 -99.99 -9.99
2019/06/26 06:42 EDT    2.40   2.77 -999 -999 -999 -99.9  84.7 -999.9 24.9  1.015 -99.9 -99.99 -9.99
2019/06/26 06:48 EDT    2.33   2.69 -999 -999 -999 -99.9  84.7 -999.9 26.3  1.016 -99.9 -99.99 -9.99
2019/06/26 06:54 EDT    2.25   2.61 -999 -999 -999 -99.9  84.7 -999.9 26.8  1.017 -99.9 -99.99 -9.99
2019/06/26 07:00 EDT    2.17   2.52 -999 -999 -999 -99.9  84.7 -999.9 25.8  1.016 -99.9 -99.99 -9.99
2019/06/26 07:06 EDT    2.09   2.44 -999 -999 -999 -99.9  84.7 -999.9 25.6  1.016 -99.9 -99.99 -9.99
2019/06/26 07:12 EDT    2.01   2.35 -999 -999 -999 -99.9  84.7 -999.9 26.6  1.017 -99.9 -99.99 -9.99
2019/06/26 07:18 EDT    1.92   2.27 -999 -999 -999 -99.9  84.7 -999.9 27.3  1.017 -99.9 -99.99 -9.99
2019/06/26 07:24 EDT    1.84   2.18 -999 -999 -999 -99.9  84.9 -999.9 26.7  1.017 -99.9 -99.99 -9.99
2019/06/26 07:30 EDT    1.75   2.09 -999 -999 -999 -99.9  84.9 -999.9 26.4  1.016 -99.9 -99.99 -9.99
2019/06/26 07:36 EDT    1.66   2.01 -999 -999 -999 -99.9  85.1 -999.9 25.6  1.016 -99.9 -99.99 -9.99
2019/06/26 07:42 EDT    1.58   1.92 -999 -999 -999 -99.9  85.1 -999.9 25.6  1.016 -99.9 -99.99 -9.99
2019/06/26 07:48 EDT    1.49   1.84 -999 -999 -999 -99.9  84.9 -999.9 25.4  1.016 -99.9 -99.99 -9.99
2019/06/26 07:54 EDT    1.41   1.75 -999 -999 -999 -99.9  84.9 -999.9 25.8  1.016 -99.9 -99.99 -9.99
2019/06/26 08:00 EDT    1.32   1.67 -999 -999 -999 -99.9  84.9 -999.9 25.5  1.016 -99.9 -99.99 -9.99
2019/06/26 08:06 EDT    1.24   1.60 -999 -999 -999 -99.9  84.9 -999.9 25.3  1.016 -99.9 -99.99 -9.99
2019/06/26 08:12 EDT    1.16   1.52 -999 -999 -999 -99.9  84.9 -999.9 25.1  1.015 -99.9 -99.99 -9.99
2019/06/26 08:18 EDT    1.09   1.43 -999 -999 -999 -99.9  84.9 -999.9 25.2  1.016 -99.9 -99.99 -9.99
2019/06/26 08:24 EDT    1.01   1.36 -999 -999 -999 -99.9  84.9 -999.9 25.1  1.015 -99.9 -99.99 -9.99
2019/06/26 08:30 EDT    0.94   1.28 -999 -999 -999 -99.9  84.7 -999.9 25.7  1.016 -99.9 -99.99 -9.99
2019/06/26 08:36 EDT    0.88   1.22 -999 -999 -999 -99.9  84.7 -999.9 25.7  1.016 -99.9 -99.99 -9.99
2019/06/26 08:42 EDT    0.81   1.19 -999 -999 -999 -99.9  84.7 -999.9 26.6  1.017 -99.9 -99.99 -9.99
2019/06/26 08:48 EDT    0.76   1.02 -999 -999 -999 -99.9  84.7 -999.9 26.3  1.016 -99.9 -99.99 -9.99
2019/06/26 08:54 EDT    0.70   1.04 -999 -999 -999 -99.9  84.7 -999.9 26.2  1.016 -99.9 -99.99 -9.99
2019/06/26 09:00 EDT    0.65   0.99 -999 -999 -999 -99.9  84.7 -999.9 26.1  1.016 -99.9 -99.99 -9.99
2019/06/26 09:06 EDT    0.60   0.95 -999 -999 -999 -99.9  84.4 -999.9 27.8  1.018 -99.9 -99.99 -9.99
2019/06/26 09:12 EDT    0.55   0.92 -999 -999 -999 -99.9  84.7 -999.9 25.3  1.016 -99.9 -99.99 -9.99
2019/06/26 09:18 EDT    0.51   0.85 -999 -999 -999 -99.9  84.7 -999.9 25.3  1.016 -99.9 -99.99 -9.99
2019/06/26 09:24 EDT    0.47   0.80 -999 -999 -999 -99.9  84.7 -999.9 24.8  1.015 -99.9 -99.99 -9.99
2019/06/26 09:30 EDT    0.44   0.76 -999 -999 -999 -99.9  84.7 -999.9 25.0  1.015 -99.9 -99.99 -9.99
2019/06/26 09:36 EDT    0.41   0.74 -999 -999 -999 -99.9  84.7 -999.9 24.8  1.015 -99.9 -99.99 -9.99
2019/06/26 09:42 EDT    0.38   0.71 -999 -999 -999 -99.9  84.7 -999.9 24.9  1.015 -99.9 -99.99 -9.99
2019/06/26 09:48 EDT    0.36   0.67 -999 -999 -999 -99.9  84.7 -999.9 25.0  1.015 -99.9 -99.99 -9.99
2019/06/26 09:54 EDT    0.34   0.64 -999 -999 -999 -99.9  84.9 -999.9 24.3  1.015 -99.9 -99.99 -9.99
2019/06/26 10:00 EDT    0.32   0.61 -999 -999 -999 -99.9  84.7 -999.9 24.9  1.015 -99.9 -99.99 -9.99
2019/06/26 10:06 EDT    0.30   0.60 -999 -999 -999 -99.9  84.7 -999.9 25.0  1.015 -99.9 -99.99 -9.99
2019/06/26 10:12 EDT    0.29   0.58 -999 -999 -999 -99.9  84.7 -999.9 24.7  1.015 -99.9 -99.99 -9.99
2019/06/26 10:18 EDT    0.28   0.57 -999 -999 -999 -99.9  84.7 -999.9 25.0  1.015 -99.9 -99.99 -9.99
2019/06/26 10:24 EDT    0.27   0.58 -999 -999 -999 -99.9  84.9 -999.9 24.2  1.015 -99.9 -99.99 -9.99
2019/06/26 10:30 EDT    0.26   0.57 -999 -999 -999 -99.9  84.9 -999.9 23.8  1.014 -99.9 -99.99 -9.99
2019/06/26 10:36 EDT    0.26   0.55 -999 -999 -999 -99.9  84.9 -999.9 23.9  1.015 -99.9 -99.99 -9.99
2019/06/26 10:42 EDT    0.26   0.55 -999 -999 -999 -99.9  85.1 -999.9 23.7  1.014 -99.9 -99.99 -9.99
2019/06/26 10:48 EDT    0.26   0.56 -999 -999 -999 -99.9  85.1 -999.9 23.3  1.014 -99.9 -99.99 -9.99
2019/06/26 10:54 EDT    0.27   0.57 -999 -999 -999 -99.9  84.9 -999.9 24.0  1.015 -99.9 -99.99 -9.99
2019/06/26 11:00 EDT    0.27   0.59 -999 -999 -999 -99.9  85.1 -999.9 23.6  1.014 -99.9 -99.99 -9.99
2019/06/26 11:06 EDT    0.28   0.61 -999 -999 -999 -99.9  85.1 -999.9 23.0  1.014 -99.9 -99.99 -9.99
2019/06/26 11:12 EDT    0.30   0.63 -999 -999 -999 -99.9  85.3 -999.9 23.0  1.014 -99.9 -99.99 -9.99
2019/06/26 11:18 EDT    0.31   0.64 -999 -999 -999 -99.9  85.3 -999.9 22.7  1.014 -99.9 -99.99 -9.99
2019/06/26 11:24 EDT    0.34   0.66 -999 -999 -999 -99.9  85.3 -999.9 22.3  1.013 -99.9 -99.99 -9.99
2019/06/26 11:30 EDT    0.36   0.70 -999 -999 -999 -99.9  85.3 -999.9 22.5  1.013 -99.9 -99.99 -9.99
2019/06/26 11:36 EDT    0.39   0.75 -999 -999 -999 -99.9  85.5 -999.9 22.1  1.013 -99.9 -99.99 -9.99
2019/06/26 11:42 EDT    0.42   0.79 -999 -999 -999 -99.9  85.5 -999.9 22.0  1.013 -99.9 -99.99 -9.99
2019/06/26 11:48 EDT    0.45   0.84 -999 -999 -999 -99.9  85.5 -999.9 22.2  1.013 -99.9 -99.99 -9.99
2019/06/26 11:54 EDT    0.49   0.89 -999 -999 -999 -99.9  85.5 -999.9 21.8  1.013 -99.9 -99.99 -9.99
2019/06/26 12:00 EDT    0.53   0.96 -999 -999 -999 -99.9  85.5 -999.9 21.8  1.013 -99.9 -99.99 -9.99
2019/06/26 12:06 EDT    0.58   1.01 -999 -999 -999 -99.9  85.6 -999.9 21.6  1.013 -99.9 -99.99 -9.99
2019/06/26 12:12 EDT    0.63   1.08 -999 -999 -999 -99.9  85.6 -999.9 21.2  1.012 -99.9 -99.99 -9.99
2019/06/26 12:18 EDT    0.68   1.16 -999 -999 -999 -99.9  85.6 -999.9 21.5  1.013 -99.9 -99.99 -9.99
2019/06/26 12:24 EDT    0.74   1.24 -999 -999 -999 -99.9  85.6 -999.9 21.6  1.013 -99.9 -99.99 -9.99
2019/06/26 12:30 EDT    0.80   1.31 -999 -999 -999 -99.9  86.0 -999.9 20.5  1.012 -99.9 -99.99 -9.99
2019/06/26 12:36 EDT    0.87   1.39 -999 -999 -999 -99.9  86.0 -999.9 20.7  1.012 -99.9 -99.99 -9.99
2019/06/26 12:42 EDT    0.94   1.47 -999 -999 -999 -99.9  85.8 -999.9 21.0  1.012 -99.9 -99.99 -9.99
2019/06/26 12:48 EDT    1.01   1.56 -999 -999 -999 -99.9  85.8 -999.9 21.1  1.012 -99.9 -99.99 -9.99
2019/06/26 12:54 EDT    1.08   1.59 -999 -999 -999 -99.9  85.8 -999.9 21.2  1.012 -99.9 -99.99 -9.99
2019/06/26 13:00 EDT    1.16   1.73 -999 -999 -999 -99.9  86.0 -999.9 20.8  1.012 -99.9 -99.99 -9.99
2019/06/26 13:06 EDT    1.24   1.82 -999 -999 -999 -99.9  86.0 -999.9 21.0  1.012 -99.9 -99.99 -9.99
2019/06/26 13:12 EDT    1.32   1.90 -999 -999 -999 -99.9  85.8 -999.9 21.3  1.012 -99.9 -99.99 -9.99
2019/06/26 13:18 EDT    1.41   1.99 -999 -999 -999 -99.9  85.8 -999.9 21.1  1.012 -99.9 -99.99 -9.99
2019/06/26 13:24 EDT    1.50   2.09 -999 -999 -999 -99.9  86.0 -999.9 21.2  1.012 -99.9 -99.99 -9.99
2019/06/26 13:30 EDT    1.58   2.18 -999 -999 -999 -99.9  85.8 -999.9 21.4  1.013 -99.9 -99.99 -9.99
2019/06/26 13:36 EDT    1.67   2.27 -999 -999 -999 -99.9  85.8 -999.9 21.4  1.013 -99.9 -99.99 -9.99
2019/06/26 13:42 EDT    1.76   2.36 -999 -999 -999 -99.9  86.0 -999.9 21.2  1.012 -99.9 -99.99 -9.99
2019/06/26 13:48 EDT    1.85   2.46 -999 -999 -999 -99.9  85.8 -999.9 21.4  1.013 -99.9 -99.99 -9.99
2019/06/26 13:54 EDT    1.94   2.54 -999 -999 -999 -99.9  86.0 -999.9 20.6  1.012 -99.9 -99.99 -9.99
2019/06/26 14:00 EDT    2.03   2.63 -999 -999 -999 -99.9  85.6 -999.9 21.0  1.012 -99.9 -99.99 -9.99
2019/06/26 14:06 EDT    2.12   2.72 -999 -999 -999 -99.9  85.6 -999.9 21.0  1.012 -99.9 -99.99 -9.99
2019/06/26 14:12 EDT    2.20   2.80 -999 -999 -999 -99.9  85.6 -999.9 21.3  1.012 -99.9 -99.99 -9.99
2019/06/26 14:18 EDT    2.28   2.88 -999 -999 -999 -99.9  85.8 -999.9 21.3  1.012 -99.9 -99.99 -9.99
2019/06/26 14:24 EDT    2.37   2.96 -999 -999 -999 -99.9  86.0 -999.9 21.5  1.013 -99.9 -99.99 -9.99
2019/06/26 14:30 EDT    2.44   3.05 -999 -999 -999 -99.9  86.7 -999.9 21.6  1.013 -99.9 -99.99 -9.99
2019/06/26 14:36 EDT    2.52   3.13 -999 -999 -999 -99.9  86.4 -999.9 21.6  1.013 -99.9 -99.99 -9.99
2019/06/26 14:42 EDT    2.59   3.20 -999 -999 -999 -99.9  86.4 -999.9 21.9  1.013 -99.9 -99.99 -9.99
2019/06/26 14:48 EDT    2.66   3.24 -999 -999 -999 -99.9  86.2 -999.9 23.1  1.014 -99.9 -99.99 -9.99
2019/06/26 14:54 EDT    2.73   3.30 -999 -999 -999 -99.9  86.4 -999.9 22.5  1.013 -99.9 -99.99 -9.99
2019/06/26 15:00 EDT    2.79   3.35 -999 -999 -999 -99.9  86.2 -999.9 22.3  1.013 -99.9 -99.99 -9.99
2019/06/26 15:06 EDT    2.84   3.42 -999 -999 -999 -99.9  86.2 -999.9 21.3  1.012 -99.9 -99.99 -9.99
2019/06/26 15:12 EDT    2.90   3.46 -999 -999 -999 -99.9  86.2 -999.9 22.6  1.013 -99.9 -99.99 -9.99
2019/06/26 15:18 EDT    2.94   3.50 -999 -999 -999 -99.9  86.2 -999.9 22.6  1.013 -99.9 -99.99 -9.99
2019/06/26 15:24 EDT    2.99   3.52 -999 -999 -999 -99.9  86.2 -999.9 22.6  1.013 -99.9 -99.99 -9.99
2019/06/26 15:30 EDT    3.03   3.55 -999 -999 -999 -99.9  86.2 -999.9 22.6  1.013 -99.9 -99.99 -9.99
2019/06/26 15:36 EDT    3.06   3.58 -999 -999 -999 -99.9  86.2 -999.9 22.9  1.014 -99.9 -99.99 -9.99
2019/06/26 15:42 EDT    3.09   3.62 -999 -999 -999 -99.9  86.0 -999.9 22.9  1.014 -99.9 -99.99 -9.99
2019/06/26 15:48 EDT    3.12   3.64 -999 -999 -999 -99.9  86.0 -999.9 22.4  1.013 -99.9 -99.99 -9.99
2019/06/26 15:54 EDT    3.15   3.66 -999 -999 -999 -99.9  86.0 -999.9 22.3  1.013 -99.9 -99.99 -9.99
2019/06/26 16:00 EDT    3.17   3.67 -999 -999 -999 -99.9  86.0 -999.9 22.2  1.013 -99.9 -99.99 -9.99
2019/06/26 16:06 EDT    3.18   3.69 -999 -999 -999 -99.9  86.2 -999.9 22.2  1.013 -99.9 -99.99 -9.99
2019/06/26 16:12 EDT    3.20   3.71 -999 -999 -999 -99.9  86.2 -999.9 22.1  1.013 -99.9 -99.99 -9.99
2019/06/26 16:18 EDT    3.21   3.71 -999 -999 -999 -99.9  86.4 -999.9 22.6  1.013 -99.9 -99.99 -9.99
2019/06/26 16:24 EDT    3.22   3.72 -999 -999 -999 -99.9  86.4 -999.9 22.6  1.013 -99.9 -99.99 -9.99
2019/06/26 16:30 EDT    3.23   3.73 -999 -999 -999 -99.9  86.4 -999.9 23.1  1.014 -99.9 -99.99 -9.99
2019/06/26 16:36 EDT    3.23   3.74 -999 -999 -999 -99.9  86.4 -999.9 23.2  1.014 -99.9 -99.99 -9.99
2019/06/26 16:42 EDT    3.23   3.74 -999 -999 -999 -99.9  86.5 -999.9 23.2  1.014 -99.9 -99.99 -9.99
2019/06/26 16:48 EDT    3.23   3.74 -999 -999 -999 -99.9  86.4 -999.9 23.4  1.014 -99.9 -99.99 -9.99
2019/06/26 16:54 EDT    3.23   3.73 -999 -999 -999 -99.9  86.4 -999.9 23.5  1.014 -99.9 -99.99 -9.99
2019/06/26 17:00 EDT    3.23   3.73 -999 -999 -999 -99.9  86.4 -999.9 23.5  1.014 -99.9 -99.99 -9.99
2019/06/26 17:06 EDT    3.23   3.73 -999 -999 -999 -99.9  86.4 -999.9 23.2  1.014 -99.9 -99.99 -9.99
2019/06/26 17:12 EDT    3.22   3.73 -999 -999 -999 -99.9  86.2 -999.9 24.4  1.015 -99.9 -99.99 -9.99
2019/06/26 17:18 EDT    3.21   3.72 -999 -999 -999 -99.9  86.2 -999.9 24.5  1.015 -99.9 -99.99 -9.99
2019/06/26 17:24 EDT    3.20   3.72 -999 -999 -999 -99.9  86.0 -999.9 24.8  1.015 -99.9 -99.99 -9.99
2019/06/26 17:30 EDT    3.19   3.72 -999 -999 -999 -99.9  86.0 -999.9 25.4  1.015 -99.9 -99.99 -9.99
2019/06/26 17:36 EDT    3.18   3.71 -999 -999 -999 -99.9  85.8 -999.9 25.5  1.016 -99.9 -99.99 -9.99
2019/06/26 17:42 EDT    3.17   3.70 -999 -999 -999 -99.9  85.6 -999.9 27.0  1.017 -99.9 -99.99 -9.99
2019/06/26 17:48 EDT    3.15   3.69 -999 -999 -999 -99.9  85.5 -999.9 27.3  1.017 -99.9 -99.99 -9.99
2019/06/26 17:54 EDT    3.13   3.68 -999 -999 -999 -99.9  85.3 -999.9 27.4  1.017 -99.9 -99.99 -9.99
2019/06/26 18:00 EDT    3.11   3.65 -999 -999 -999 -99.9  85.5 -999.9 26.9  1.017 -99.9 -99.99 -9.99
2019/06/26 18:06 EDT    3.08   3.62 -999 -999 -999 -99.9  85.3 -999.9 27.3  1.017 -99.9 -99.99 -9.99
2019/06/26 18:12 EDT    3.06   3.59 -999 -999 -999 -99.9  85.1 -999.9 27.4  1.017 -99.9 -99.99 -9.99
2019/06/26 18:18 EDT    3.02   3.57 -999 -999 -999 -99.9  85.1 -999.9 27.9  1.018 -99.9 -99.99 -9.99
2019/06/26 18:24 EDT    2.99   3.53 -999 -999 -999 -99.9  84.9 -999.9 28.1  1.018 -99.9 -99.99 -9.99
2019/06/26 18:30 EDT    2.95   3.49 -999 -999 -999 -99.9  84.9 -999.9 28.1  1.018 -99.9 -99.99 -9.99
2019/06/26 18:36 EDT    2.91   3.44 -999 -999 -999 -99.9  84.9 -999.9 27.8  1.017 -99.9 -99.99 -9.99
2019/06/26 18:42 EDT    2.86   3.38 -999 -999 -999 -99.9  84.9 -999.9 27.8  1.017 -99.9 -99.99 -9.99
2019/06/26 18:48 EDT    2.82   3.34 -999 -999 -999 -99.9  84.9 -999.9 27.3  1.017 -99.9 -99.99 -9.99
2019/06/26 18:54 EDT    2.76   3.29 -999 -999 -999 -99.9  84.9 -999.9 26.8  1.017 -99.9 -99.99 -9.99
2019/06/26 19:00 EDT    2.71   3.24 -999 -999 -999 -99.9  84.9 -999.9 27.5  1.017 -99.9 -99.99 -9.99
2019/06/26 19:06 EDT    2.65   3.17 -999 -999 -999 -99.9  84.9 -999.9 28.1  1.018 -99.9 -99.99 -9.99
2019/06/26 19:12 EDT    2.58   3.10 -999 -999 -999 -99.9  84.9 -999.9 28.0  1.018 -99.9 -99.99 -9.99
2019/06/26 19:18 EDT    2.52   3.02 -999 -999 -999 -99.9  84.9 -999.9 28.0  1.018 -99.9 -99.99 -9.99
2019/06/26 19:24 EDT    2.45   2.94 -999 -999 -999 -99.9  84.9 -999.9 28.1  1.018 -99.9 -99.99 -9.99
2019/06/26 19:30 EDT    2.37   2.86 -999 -999 -999 -99.9  84.9 -999.9 26.9  1.017 -99.9 -99.99 -9.99
2019/06/26 19:36 EDT    2.30   2.78 -999 -999 -999 -99.9  84.9 -999.9 26.9  1.017 -99.9 -99.99 -9.99
2019/06/26 19:42 EDT    2.22   2.68 -999 -999 -999 -99.9  85.3 -999.9 27.0  1.017 -99.9 -99.99 -9.99
2019/06/26 19:48 EDT    2.15   2.58 -999 -999 -999 -99.9  85.5 -999.9 26.8  1.017 -99.9 -99.99 -9.99
2019/06/26 19:54 EDT    2.07   2.49 -999 -999 -999 -99.9  85.6 -999.9 26.7  1.016 -99.9 -99.99 -9.99
2019/06/26 20:00 EDT    1.99   2.43 -999 -999 -999 -99.9  85.6 -999.9 26.7  1.016 -99.9 -99.99 -9.99
2019/06/26 20:06 EDT    1.91   2.34 -999 -999 -999 -99.9  85.6 -999.9 27.3  1.017 -99.9 -99.99 -9.99
2019/06/26 20:12 EDT    1.83   2.25 -999 -999 -999 -99.9  85.6 -999.9 27.4  1.017 -99.9 -99.99 -9.99
2019/06/26 20:18 EDT    1.75   2.16 -999 -999 -999 -99.9  85.6 -999.9 27.3  1.017 -99.9 -99.99 -9.99
2019/06/26 20:24 EDT    1.68   2.07 -999 -999 -999 -99.9  85.6 -999.9 27.5  1.017 -99.9 -99.99 -9.99
2019/06/26 20:30 EDT    1.60   1.99 -999 -999 -999 -99.9  85.5 -999.9 27.3  1.017 -99.9 -99.99 -9.99
2019/06/26 20:36 EDT    1.53   1.91 -999 -999 -999 -99.9  85.3 -999.9 27.2  1.017 -99.9 -99.99 -9.99
2019/06/26 20:42 EDT    1.46   1.84 -999 -999 -999 -99.9  85.3 -999.9 27.4  1.017 -99.9 -99.99 -9.99
2019/06/26 20:48 EDT    1.39   1.76 -999 -999 -999 -99.9  85.1 -999.9 27.7  1.017 -99.9 -99.99 -9.99
2019/06/26 20:54 EDT    1.33   1.69 -999 -999 -999 -99.9  85.1 -999.9 27.5  1.017 -99.9 -99.99 -9.99
2019/06/26 21:00 EDT    1.27   1.62 -999 -999 -999 -99.9  85.1 -999.9 27.5  1.017 -99.9 -99.99 -9.99
2019/06/26 21:06 EDT    1.21   1.56 -999 -999 -999 -99.9  85.1 -999.9 27.6  1.017 -99.9 -99.99 -9.99
2019/06/26 21:12 EDT    1.15   1.49 -999 -999 -999 -99.9  85.1 -999.9 27.7  1.017 -99.9 -99.99 -9.99
2019/06/26 21:18 EDT    1.10   1.44 -999 -999 -999 -99.9  85.1 -999.9 27.3  1.017 -99.9 -99.99 -9.99
2019/06/26 21:24 EDT    1.05   1.39 -999 -999 -999 -99.9  85.3 -999.9 27.2  1.017 -99.9 -99.99 -9.99
2019/06/26 21:30 EDT    1.00   1.33 -999 -999 -999 -99.9  84.9 -999.9 27.8  1.017 -99.9 -99.99 -9.99
2019/06/26 21:36 EDT    0.96   1.29 -999 -999 -999 -99.9  84.9 -999.9 27.9  1.018 -99.9 -99.99 -9.99
2019/06/26 21:42 EDT    0.92   1.25 -999 -999 -999 -99.9  85.1 -999.9 27.5  1.017 -99.9 -99.99 -9.99
2019/06/26 21:48 EDT    0.89   1.21 -999 -999 -999 -99.9  85.1 -999.9 27.5  1.017 -99.9 -99.99 -9.99
2019/06/26 21:54 EDT    0.85   1.17 -999 -999 -999 -99.9  85.1 -999.9 27.6  1.017 -99.9 -99.99 -9.99
2019/06/26 22:00 EDT    0.82   1.13 -999 -999 -999 -99.9  85.1 -999.9 27.8  1.017 -99.9 -99.99 -9.99
2019/06/26 22:06 EDT    0.79   1.09 -999 -999 -999 -99.9  85.1 -999.9 27.1  1.017 -99.9 -99.99 -9.99
2019/06/26 22:12 EDT    0.77   1.08 -999 -999 -999 -99.9  85.3 -999.9 26.6  1.017 -99.9 -99.99 -9.99
2019/06/26 22:18 EDT    0.75   1.06 -999 -999 -999 -99.9  85.3 -999.9 26.0  1.016 -99.9 -99.99 -9.99
2019/06/26 22:24 EDT    0.72   1.04 -999 -999 -999 -99.9  85.3 -999.9 25.7  1.016 -99.9 -99.99 -9.99
2019/06/26 22:30 EDT    0.71   1.02 -999 -999 -999 -99.9  85.3 -999.9 25.6  1.016 -99.9 -99.99 -9.99
2019/06/26 22:36 EDT    0.69   1.00 -999 -999 -999 -99.9  85.3 -999.9 25.3  1.016 -99.9 -99.99 -9.99
2019/06/26 22:42 EDT    0.68   0.99 -999 -999 -999 -99.9  85.5 -999.9 24.8  1.015 -99.9 -99.99 -9.99
2019/06/26 22:48 EDT    0.66   0.97 -999 -999 -999 -99.9  85.5 -999.9 25.1  1.015 -99.9 -99.99 -9.99
2019/06/26 22:54 EDT    0.65   0.97 -999 -999 -999 -99.9  85.6 -999.9 24.6  1.015 -99.9 -99.99 -9.99
2019/06/26 23:00 EDT    0.64   0.98 -999 -999 -999 -99.9  85.6 -999.9 24.1  1.015 -99.9 -99.99 -9.99
2019/06/26 23:06 EDT    0.64   0.97 -999 -999 -999 -99.9  85.6 -999.9 24.2  1.015 -99.9 -99.99 -9.99
2019/06/26 23:12 EDT    0.63   0.94 -999 -999 -999 -99.9  85.6 -999.9 23.5  1.014 -99.9 -99.99 -9.99
2019/06/26 23:18 EDT    0.63   1.00 -999 -999 -999 -99.9  85.6 -999.9 23.9  1.014 -99.9 -99.99 -9.99
2019/06/26 23:24 EDT    0.63   1.02 -999 -999 -999 -99.9  85.6 -999.9 24.3  1.015 -99.9 -99.99 -9.99
2019/06/26 23:30 EDT    0.64   1.01 -999 -999 -999 -99.9  85.6 -999.9 24.7  1.015 -99.9 -99.99 -9.99
2019/06/26 23:36 EDT    0.64   0.97 -999 -999 -999 -99.9  85.6 -999.9 24.2  1.015 -99.9 -99.99 -9.99
2019/06/26 23:42 EDT    0.65   1.03 -999 -999 -999 -99.9  85.6 -999.9 23.8  1.014 -99.9 -99.99 -9.99
2019/06/26 23:48 EDT    0.66   1.08 -999 -999 -999 -99.9  85.6 -999.9 23.8  1.014 -99.9 -99.99 -9.99
2019/06/26 23:54 EDT    0.68   1.13 -999 -999 -999 -99.9  85.5 -999.9 25.9  1.016 -99.9 -99.99 -9.99
2019/06/27 00:00 EDT    0.70   1.15 -999 -999 -999 -99.9  85.8 -999.9 24.3  1.015 -99.9 -99.99 -9.99
2019/06/27 00:06 EDT    0.72   1.18 -999 -999 -999 -99.9  85.6 -999.9 24.5  1.015 -99.9 -99.99 -9.99
2019/06/27 00:12 EDT    0.74   1.19 -999 -999 -999 -99.9  85.6 -999.9 24.6  1.015 -99.9 -99.99 -9.99
2019/06/27 00:18 EDT    0.77   1.25 -999 -999 -999 -99.9  85.8 -999.9 23.9  1.014 -99.9 -99.99 -9.99
2019/06/27 00:24 EDT    0.80   1.30 -999 -999 -999 -99.9  85.8 -999.9 22.9  1.014 -99.9 -99.99 -9.99
2019/06/27 00:30 EDT    0.83   1.36 -999 -999 -999 -99.9  85.8 -999.9 23.1  1.014 -99.9 -99.99 -9.99
2019/06/27 00:36 EDT    0.87   1.40 -999 -999 -999 -99.9  85.6 -999.9 23.1  1.014 -99.9 -99.99 -9.99
2019/06/27 00:42 EDT    0.92   1.48 -999 -999 -999 -99.9  85.6 -999.9 22.9  1.014 -99.9 -99.99 -9.99
2019/06/27 00:48 EDT    0.96   1.54 -999 -999 -999 -99.9  85.6 -999.9 23.0  1.014 -99.9 -99.99 -9.99
2019/06/27 00:54 EDT    1.01   1.60 -999 -999 -999 -99.9  85.6 -999.9 22.7  1.014 -99.9 -99.99 -9.99
2019/06/27 01:00 EDT    1.06   1.66 -999 -999 -999 -99.9  85.6 -999.9 22.4  1.013 -99.9 -99.99 -9.99
2019/06/27 01:06 EDT    1.12   1.72 -999 -999 -999 -99.9  85.6 -999.9 22.4  1.013 -99.9 -99.99 -9.99
2019/06/27 01:12 EDT    1.18   1.79 -999 -999 -999 -99.9  85.6 -999.9 22.3  1.013 -99.9 -99.99 -9.99
2019/06/27 01:18 EDT    1.24   1.87 -999 -999 -999 -99.9  85.6 -999.9 22.3  1.013 -99.9 -99.99 -9.99
2019/06/27 01:24 EDT    1.31   1.96 -999 -999 -999 -99.9  85.6 -999.9 22.0  1.013 -99.9 -99.99 -9.99
2019/06/27 01:30 EDT    1.38   2.04 -999 -999 -999 -99.9  85.6 -999.9 22.0  1.013 -99.9 -99.99 -9.99
2019/06/27 01:36 EDT    1.45   2.11 -999 -999 -999 -99.9  85.6 -999.9 21.5  1.013 -99.9 -99.99 -9.99
2019/06/27 01:42 EDT    1.52   2.19 -999 -999 -999 -99.9  85.6 -999.9 22.0  1.013 -99.9 -99.99 -9.99
2019/06/27 01:48 EDT    1.60   2.26 -999 -999 -999 -99.9  85.6 -999.9 22.0  1.013 -99.9 -99.99 -9.99
2019/06/27 01:54 EDT    1.67   2.34 -999 -999 -999 -99.9  85.6 -999.9 22.1  1.013 -99.9 -99.99 -9.99
2019/06/27 02:00 EDT    1.75   2.42 -999 -999 -999 -99.9  85.6 -999.9 22.0  1.013 -99.9 -99.99 -9.99
2019/06/27 02:06 EDT    1.83   2.49 -999 -999 -999 -99.9  85.6 -999.9 22.2  1.013 -99.9 -99.99 -9.99
2019/06/27 02:12 EDT    1.91   2.57 -999 -999 -999 -99.9  85.5 -999.9 23.3  1.014 -99.9 -99.99 -9.99
2019/06/27 02:18 EDT    1.99   2.65 -999 -999 -999 -99.9  85.6 -999.9 23.2  1.014 -99.9 -99.99 -9.99
2019/06/27 02:24 EDT    2.07   2.73 -999 -999 -999 -99.9  85.6 -999.9 21.5  1.013 -99.9 -99.99 -9.99
2019/06/27 02:30 EDT    2.14   2.80 -999 -999 -999 -99.9  85.5 -999.9 23.2  1.014 -99.9 -99.99 -9.99
2019/06/27 02:36 EDT    2.22   2.87 -999 -999 -999 -99.9  85.5 -999.9 23.8  1.014 -99.9 -99.99 -9.99
2019/06/27 02:42 EDT    2.29   2.95 -999 -999 -999 -99.9  85.5 -999.9 23.2  1.014 -99.9 -99.99 -9.99
2019/06/27 02:48 EDT    2.37   3.03 -999 -999 -999 -99.9  85.3 -999.9 23.4  1.014 -99.9 -99.99 -9.99
2019/06/27 02:54 EDT    2.44   3.10 -999 -999 -999 -99.9  85.3 -999.9 23.5  1.014 -99.9 -99.99 -9.99
2019/06/27 03:00 EDT    2.51   3.17 -999 -999 -999 -99.9  85.3 -999.9 22.7  1.014 -99.9 -99.99 -9.99
2019/06/27 03:06 EDT    2.57   3.23 -999 -999 -999 -99.9  85.3 -999.9 22.4  1.013 -99.9 -99.99 -9.99
2019/06/27 03:12 EDT    2.63   3.28 -999 -999 -999 -99.9  85.3 -999.9 22.3  1.013 -99.9 -99.99 -9.99
2019/06/27 03:18 EDT    2.69   3.34 -999 -999 -999 -99.9  85.3 -999.9 22.3  1.013 -99.9 -99.99 -9.99
2019/06/27 03:24 EDT    2.74   3.39 -999 -999 -999 -99.9  85.5 -999.9 22.4  1.013 -99.9 -99.99 -9.99
2019/06/27 03:30 EDT    2.79   3.44 -999 -999 -999 -99.9  85.5 -999.9 22.1  1.013 -99.9 -99.99 -9.99
2019/06/27 03:36 EDT    2.84   3.48 -999 -999 -999 -99.9  85.5 -999.9 21.9  1.013 -99.9 -99.99 -9.99
2019/06/27 03:42 EDT    2.88   3.52 -999 -999 -999 -99.9  85.3 -999.9 21.3  1.013 -99.9 -99.99 -9.99
2019/06/27 03:48 EDT    2.92   3.55 -999 -999 -999 -99.9  85.3 -999.9 23.1  1.014 -99.9 -99.99 -9.99
2019/06/27 03:54 EDT    2.96   3.58 -999 -999 -999 -99.9  85.5 -999.9 23.1  1.014 -99.9 -99.99 -9.99
2019/06/27 04:00 EDT    2.99   3.61 -999 -999 -999 -99.9  85.5 -999.9 23.1  1.014 -99.9 -99.99 -9.99
2019/06/27 04:06 EDT    3.01   3.62 -999 -999 -999 -99.9  85.5 -999.9 23.0  1.014 -99.9 -99.99 -9.99
2019/06/27 04:12 EDT    3.04   3.64 -999 -999 -999 -99.9  85.5 -999.9 22.8  1.014 -99.9 -99.99 -9.99
2019/06/27 04:18 EDT    3.06   3.65 -999 -999 -999 -99.9  85.5 -999.9 23.2  1.014 -99.9 -99.99 -9.99
2019/06/27 04:24 EDT    3.07   3.67 -999 -999 -999 -99.9  85.5 -999.9 23.3  1.014 -99.9 -99.99 -9.99
2019/06/27 04:30 EDT    3.08   3.67 -999 -999 -999 -99.9  85.5 -999.9 23.7  1.014 -99.9 -99.99 -9.99
2019/06/27 04:36 EDT    3.09   3.67 -999 -999 -999 -99.9  85.5 -999.9 22.3  1.013 -99.9 -99.99 -9.99
2019/06/27 04:42 EDT    3.10   3.68 -999 -999 -999 -99.9  85.5 -999.9 22.3  1.013 -99.9 -99.99 -9.99
2019/06/27 04:48 EDT    3.11   3.68 -999 -999 -999 -99.9  85.5 -999.9 22.3  1.013 -99.9 -99.99 -9.99
2019/06/27 04:54 EDT    3.11   3.68 -999 -999 -999 -99.9  85.3 -999.9 22.6  1.014 -99.9 -99.99 -9.99
2019/06/27 05:00 EDT    3.11   3.67 -999 -999 -999 -99.9  85.3 -999.9 22.6  1.014 -99.9 -99.99 -9.99
2019/06/27 05:06 EDT    3.11   3.68 -999 -999 -999 -99.9  85.3 -999.9 22.8  1.014 -99.9 -99.99 -9.99
2019/06/27 05:12 EDT    3.10   3.65 -999 -999 -999 -99.9  85.3 -999.9 23.0  1.014 -99.9 -99.99 -9.99
2019/06/27 05:18 EDT    3.10   3.68 -999 -999 -999 -99.9  85.3 -999.9 23.9  1.014 -99.9 -99.99 -9.99
2019/06/27 05:24 EDT    3.09   3.65 -999 -999 -999 -99.9  85.3 -999.9 23.1  1.014 -99.9 -99.99 -9.99
2019/06/27 05:30 EDT    3.08 -99.99 -999 -999 -999 -99.9 -99.9 -999.9 -9.9 -9.999 -99.9 -99.99 -9.99
2019/06/27 05:36 EDT    3.07 -99.99 -999 -999 -999 -99.9 -99.9 -999.9 -9.9 -9.999 -99.9 -99.99 -9.99

Revised: 08/08/2018
NOAA / National Ocean Service
Web site owner: Center for Operational Oceanographic Products and Services